<?xml version="1.0" encoding="UTF-8" standalone="no" ?>
<gpx xmlns="http://www.topografix.com/GPX/1/1" xmlns:xsi="http://www.w3.org/2001/XMLSchema-instance" xsi:schemaLocation="http://www.topografix.com/GPX/1/1 http://www.topografix.com/GPX/1/1/gpx.xsd" version="1.1" creator="VisuGPX - https://www.visugpx.com">
  <metadata>
    <name>Gemsa Ski de Rando 2014-03-10 J2 :  Refuge Wallon -  Refuge Respomuso</name>
    <desc><![CDATA[Refuge Wallon (1865m)
Pene d\\\'Aragon SE (2959m)
Refuge Respomuso (2200m)]]></desc>
  </metadata>
  <trk>
    <name><![CDATA[Gemsa Ski de Rando 2014-03-10 J2 :  Refuge Wallon -  Refuge Respomuso_1]]></name>
    <trkseg>
      <trkpt lat="42.81994" lon="-0.19514">
        <ele>1833.7039794922</ele>
        <time>2014-03-10T06:20:00Z</time>
      </trkpt>
      <trkpt lat="42.81977" lon="-0.19539">
        <ele>1834.66796875</ele>
        <time>2014-03-10T06:20:41Z</time>
      </trkpt>
      <trkpt lat="42.81973" lon="-0.1954">
        <ele>1833.9630126953</ele>
        <time>2014-03-10T06:20:45Z</time>
      </trkpt>
      <trkpt lat="42.81969" lon="-0.19546">
        <ele>1834.1369628906</ele>
        <time>2014-03-10T06:20:50Z</time>
      </trkpt>
      <trkpt lat="42.81968" lon="-0.19561">
        <ele>1838.083984375</ele>
        <time>2014-03-10T06:21:03Z</time>
      </trkpt>
      <trkpt lat="42.81968" lon="-0.19561">
        <ele>1841.0930175781</ele>
        <time>2014-03-10T06:21:08Z</time>
      </trkpt>
      <trkpt lat="42.81969" lon="-0.19561">
        <ele>1844.3590087891</ele>
        <time>2014-03-10T06:21:17Z</time>
      </trkpt>
      <trkpt lat="42.81969" lon="-0.19561">
        <ele>1847.2939453125</ele>
        <time>2014-03-10T06:21:27Z</time>
      </trkpt>
      <trkpt lat="42.81968" lon="-0.19563">
        <ele>1850.3149414062</ele>
        <time>2014-03-10T06:21:47Z</time>
      </trkpt>
      <trkpt lat="42.81967" lon="-0.19561">
        <ele>1853.3470458984</ele>
        <time>2014-03-10T06:22:04Z</time>
      </trkpt>
      <trkpt lat="42.81966" lon="-0.19559">
        <ele>1856.7449951172</ele>
        <time>2014-03-10T06:22:24Z</time>
      </trkpt>
      <trkpt lat="42.81966" lon="-0.19559">
        <ele>1856.9379882812</ele>
        <time>2014-03-10T06:23:46Z</time>
      </trkpt>
      <trkpt lat="42.81966" lon="-0.19559">
        <ele>1857.3480224609</ele>
        <time>2014-03-10T06:23:52Z</time>
      </trkpt>
      <trkpt lat="42.81958" lon="-0.19577">
        <ele>1858.2559814453</ele>
        <time>2014-03-10T06:24:33Z</time>
      </trkpt>
      <trkpt lat="42.81949" lon="-0.19594">
        <ele>1858.1040039062</ele>
        <time>2014-03-10T06:24:50Z</time>
      </trkpt>
      <trkpt lat="42.81947" lon="-0.19599">
        <ele>1858.5</ele>
        <time>2014-03-10T06:25:24Z</time>
      </trkpt>
      <trkpt lat="42.81935" lon="-0.19613">
        <ele>1859.4200439453</ele>
        <time>2014-03-10T06:27:05Z</time>
      </trkpt>
      <trkpt lat="42.81925" lon="-0.19638">
        <ele>1859.2719726562</ele>
        <time>2014-03-10T06:27:27Z</time>
      </trkpt>
      <trkpt lat="42.81919" lon="-0.19646">
        <ele>1860.1009521484</ele>
        <time>2014-03-10T06:27:50Z</time>
      </trkpt>
      <trkpt lat="42.81913" lon="-0.19658">
        <ele>1860.6610107422</ele>
        <time>2014-03-10T06:28:24Z</time>
      </trkpt>
      <trkpt lat="42.81905" lon="-0.19666">
        <ele>1861.7199707031</ele>
        <time>2014-03-10T06:28:50Z</time>
      </trkpt>
      <trkpt lat="42.81911" lon="-0.19679">
        <ele>1861.9460449219</ele>
        <time>2014-03-10T06:29:27Z</time>
      </trkpt>
      <trkpt lat="42.81918" lon="-0.19702">
        <ele>1863.1190185547</ele>
        <time>2014-03-10T06:29:46Z</time>
      </trkpt>
      <trkpt lat="42.81918" lon="-0.19703">
        <ele>1863.0069580078</ele>
        <time>2014-03-10T06:29:48Z</time>
      </trkpt>
      <trkpt lat="42.81931" lon="-0.1973">
        <ele>1863.8669433594</ele>
        <time>2014-03-10T06:30:11Z</time>
      </trkpt>
      <trkpt lat="42.81936" lon="-0.19739">
        <ele>1863.998046875</ele>
        <time>2014-03-10T06:30:20Z</time>
      </trkpt>
      <trkpt lat="42.8194" lon="-0.19764">
        <ele>1864.0909423828</ele>
        <time>2014-03-10T06:30:43Z</time>
      </trkpt>
      <trkpt lat="42.81941" lon="-0.19778">
        <ele>1864.8649902344</ele>
        <time>2014-03-10T06:31:04Z</time>
      </trkpt>
      <trkpt lat="42.81943" lon="-0.19779">
        <ele>1865.2569580078</ele>
        <time>2014-03-10T06:34:00Z</time>
      </trkpt>
      <trkpt lat="42.8194" lon="-0.19776">
        <ele>1863.8299560547</ele>
        <time>2014-03-10T06:37:09Z</time>
      </trkpt>
      <trkpt lat="42.81944" lon="-0.19776">
        <ele>1864.0250244141</ele>
        <time>2014-03-10T06:38:21Z</time>
      </trkpt>
      <trkpt lat="42.81956" lon="-0.19799">
        <ele>1863.5589599609</ele>
        <time>2014-03-10T06:38:39Z</time>
      </trkpt>
      <trkpt lat="42.81957" lon="-0.19798">
        <ele>1864.2939453125</ele>
        <time>2014-03-10T06:38:52Z</time>
      </trkpt>
      <trkpt lat="42.81969" lon="-0.19814">
        <ele>1863.4310302734</ele>
        <time>2014-03-10T06:40:43Z</time>
      </trkpt>
      <trkpt lat="42.81987" lon="-0.19838">
        <ele>1863.3120117188</ele>
        <time>2014-03-10T06:41:06Z</time>
      </trkpt>
      <trkpt lat="42.82006" lon="-0.1986">
        <ele>1865.5350341797</ele>
        <time>2014-03-10T06:41:32Z</time>
      </trkpt>
      <trkpt lat="42.82023" lon="-0.19878">
        <ele>1867.9699707031</ele>
        <time>2014-03-10T06:41:57Z</time>
      </trkpt>
      <trkpt lat="42.82016" lon="-0.19885">
        <ele>1870.0100097656</ele>
        <time>2014-03-10T06:42:13Z</time>
      </trkpt>
      <trkpt lat="42.82014" lon="-0.19896">
        <ele>1871.8890380859</ele>
        <time>2014-03-10T06:42:29Z</time>
      </trkpt>
      <trkpt lat="42.82014" lon="-0.19898">
        <ele>1872.3680419922</ele>
        <time>2014-03-10T06:42:30Z</time>
      </trkpt>
      <trkpt lat="42.82015" lon="-0.19903">
        <ele>1872.3709716797</ele>
        <time>2014-03-10T06:42:33Z</time>
      </trkpt>
      <trkpt lat="42.8202" lon="-0.19924">
        <ele>1868.9339599609</ele>
        <time>2014-03-10T06:42:47Z</time>
      </trkpt>
      <trkpt lat="42.82021" lon="-0.19959">
        <ele>1868.0269775391</ele>
        <time>2014-03-10T06:43:08Z</time>
      </trkpt>
      <trkpt lat="42.82032" lon="-0.19991">
        <ele>1868.2580566406</ele>
        <time>2014-03-10T06:43:33Z</time>
      </trkpt>
      <trkpt lat="42.8203" lon="-0.20001">
        <ele>1866.7729492188</ele>
        <time>2014-03-10T06:43:50Z</time>
      </trkpt>
      <trkpt lat="42.82014" lon="-0.2">
        <ele>1867.1070556641</ele>
        <time>2014-03-10T06:44:03Z</time>
      </trkpt>
      <trkpt lat="42.82011" lon="-0.20013">
        <ele>1868.2819824219</ele>
        <time>2014-03-10T06:44:17Z</time>
      </trkpt>
      <trkpt lat="42.82006" lon="-0.20039">
        <ele>1868.3879394531</ele>
        <time>2014-03-10T06:44:37Z</time>
      </trkpt>
      <trkpt lat="42.81995" lon="-0.20058">
        <ele>1867.9880371094</ele>
        <time>2014-03-10T06:44:55Z</time>
      </trkpt>
      <trkpt lat="42.8199" lon="-0.20073">
        <ele>1869.625</ele>
        <time>2014-03-10T06:45:10Z</time>
      </trkpt>
      <trkpt lat="42.81983" lon="-0.20092">
        <ele>1872.0059814453</ele>
        <time>2014-03-10T06:45:33Z</time>
      </trkpt>
      <trkpt lat="42.81967" lon="-0.20101">
        <ele>1875.1209716797</ele>
        <time>2014-03-10T06:45:52Z</time>
      </trkpt>
      <trkpt lat="42.81958" lon="-0.20116">
        <ele>1876.9229736328</ele>
        <time>2014-03-10T06:46:07Z</time>
      </trkpt>
      <trkpt lat="42.81942" lon="-0.20134">
        <ele>1878.4709472656</ele>
        <time>2014-03-10T06:46:26Z</time>
      </trkpt>
      <trkpt lat="42.81936" lon="-0.20148">
        <ele>1878.8070068359</ele>
        <time>2014-03-10T06:46:46Z</time>
      </trkpt>
      <trkpt lat="42.8193" lon="-0.20162">
        <ele>1880.0970458984</ele>
        <time>2014-03-10T06:48:53Z</time>
      </trkpt>
      <trkpt lat="42.81918" lon="-0.20179">
        <ele>1882.9189453125</ele>
        <time>2014-03-10T06:49:15Z</time>
      </trkpt>
      <trkpt lat="42.8191" lon="-0.20193">
        <ele>1886.0400390625</ele>
        <time>2014-03-10T06:49:34Z</time>
      </trkpt>
      <trkpt lat="42.81897" lon="-0.20211">
        <ele>1889.4279785156</ele>
        <time>2014-03-10T06:49:55Z</time>
      </trkpt>
      <trkpt lat="42.81888" lon="-0.20232">
        <ele>1892.2270507812</ele>
        <time>2014-03-10T06:50:14Z</time>
      </trkpt>
      <trkpt lat="42.81885" lon="-0.20244">
        <ele>1894.4060058594</ele>
        <time>2014-03-10T06:50:27Z</time>
      </trkpt>
      <trkpt lat="42.81893" lon="-0.20256">
        <ele>1897.9659423828</ele>
        <time>2014-03-10T06:50:43Z</time>
      </trkpt>
      <trkpt lat="42.81893" lon="-0.20266">
        <ele>1900.3830566406</ele>
        <time>2014-03-10T06:50:54Z</time>
      </trkpt>
      <trkpt lat="42.81884" lon="-0.20273">
        <ele>1901.7030029297</ele>
        <time>2014-03-10T06:51:14Z</time>
      </trkpt>
      <trkpt lat="42.81875" lon="-0.2028">
        <ele>1904.79296875</ele>
        <time>2014-03-10T06:51:53Z</time>
      </trkpt>
      <trkpt lat="42.81865" lon="-0.20291">
        <ele>1907.9730224609</ele>
        <time>2014-03-10T06:52:11Z</time>
      </trkpt>
      <trkpt lat="42.81857" lon="-0.20303">
        <ele>1911.1729736328</ele>
        <time>2014-03-10T06:52:28Z</time>
      </trkpt>
      <trkpt lat="42.81843" lon="-0.20316">
        <ele>1914.4749755859</ele>
        <time>2014-03-10T06:52:48Z</time>
      </trkpt>
      <trkpt lat="42.81834" lon="-0.20323">
        <ele>1917.6280517578</ele>
        <time>2014-03-10T06:53:03Z</time>
      </trkpt>
      <trkpt lat="42.81821" lon="-0.20336">
        <ele>1921.166015625</ele>
        <time>2014-03-10T06:53:21Z</time>
      </trkpt>
      <trkpt lat="42.8181" lon="-0.20345">
        <ele>1923.6540527344</ele>
        <time>2014-03-10T06:53:42Z</time>
      </trkpt>
      <trkpt lat="42.81804" lon="-0.20361">
        <ele>1926.8659667969</ele>
        <time>2014-03-10T06:54:05Z</time>
      </trkpt>
      <trkpt lat="42.81797" lon="-0.20379">
        <ele>1928.5799560547</ele>
        <time>2014-03-10T06:54:24Z</time>
      </trkpt>
      <trkpt lat="42.81788" lon="-0.20391">
        <ele>1929.7199707031</ele>
        <time>2014-03-10T06:54:38Z</time>
      </trkpt>
      <trkpt lat="42.81782" lon="-0.20392">
        <ele>1930.1440429688</ele>
        <time>2014-03-10T06:54:41Z</time>
      </trkpt>
      <trkpt lat="42.81778" lon="-0.20404">
        <ele>1931.6750488281</ele>
        <time>2014-03-10T06:54:57Z</time>
      </trkpt>
      <trkpt lat="42.81768" lon="-0.20424">
        <ele>1934.7629394531</ele>
        <time>2014-03-10T06:55:17Z</time>
      </trkpt>
      <trkpt lat="42.81751" lon="-0.20437">
        <ele>1937.8389892578</ele>
        <time>2014-03-10T06:55:42Z</time>
      </trkpt>
      <trkpt lat="42.81751" lon="-0.20438">
        <ele>1938.4689941406</ele>
        <time>2014-03-10T06:56:20Z</time>
      </trkpt>
      <trkpt lat="42.81738" lon="-0.20443">
        <ele>1941.1970214844</ele>
        <time>2014-03-10T06:56:53Z</time>
      </trkpt>
      <trkpt lat="42.81726" lon="-0.20441">
        <ele>1944.3959960938</ele>
        <time>2014-03-10T06:57:10Z</time>
      </trkpt>
      <trkpt lat="42.81721" lon="-0.20439">
        <ele>1946.1419677734</ele>
        <time>2014-03-10T06:57:30Z</time>
      </trkpt>
      <trkpt lat="42.81718" lon="-0.20459">
        <ele>1949.3909912109</ele>
        <time>2014-03-10T06:57:50Z</time>
      </trkpt>
      <trkpt lat="42.81711" lon="-0.20476">
        <ele>1952.3120117188</ele>
        <time>2014-03-10T06:58:11Z</time>
      </trkpt>
      <trkpt lat="42.81702" lon="-0.20483">
        <ele>1953.248046875</ele>
        <time>2014-03-10T06:58:31Z</time>
      </trkpt>
      <trkpt lat="42.81684" lon="-0.20501">
        <ele>1953.9670410156</ele>
        <time>2014-03-10T06:58:49Z</time>
      </trkpt>
      <trkpt lat="42.8167" lon="-0.20515">
        <ele>1954.0229492188</ele>
        <time>2014-03-10T06:59:04Z</time>
      </trkpt>
      <trkpt lat="42.81648" lon="-0.20533">
        <ele>1954.3070068359</ele>
        <time>2014-03-10T06:59:24Z</time>
      </trkpt>
      <trkpt lat="42.81632" lon="-0.20532">
        <ele>1951.3399658203</ele>
        <time>2014-03-10T06:59:36Z</time>
      </trkpt>
      <trkpt lat="42.81623" lon="-0.20533">
        <ele>1949.6350097656</ele>
        <time>2014-03-10T06:59:40Z</time>
      </trkpt>
      <trkpt lat="42.81609" lon="-0.20543">
        <ele>1948.7580566406</ele>
        <time>2014-03-10T06:59:54Z</time>
      </trkpt>
      <trkpt lat="42.81593" lon="-0.2056">
        <ele>1950.2609863281</ele>
        <time>2014-03-10T07:00:18Z</time>
      </trkpt>
      <trkpt lat="42.81593" lon="-0.20561">
        <ele>1950.5889892578</ele>
        <time>2014-03-10T07:00:20Z</time>
      </trkpt>
      <trkpt lat="42.81577" lon="-0.20582">
        <ele>1951.501953125</ele>
        <time>2014-03-10T07:00:40Z</time>
      </trkpt>
      <trkpt lat="42.81565" lon="-0.20597">
        <ele>1953.2199707031</ele>
        <time>2014-03-10T07:01:00Z</time>
      </trkpt>
      <trkpt lat="42.81558" lon="-0.20606">
        <ele>1953.9969482422</ele>
        <time>2014-03-10T07:01:12Z</time>
      </trkpt>
      <trkpt lat="42.81546" lon="-0.2062">
        <ele>1957.5939941406</ele>
        <time>2014-03-10T07:01:36Z</time>
      </trkpt>
      <trkpt lat="42.81545" lon="-0.20621">
        <ele>1957.5570068359</ele>
        <time>2014-03-10T07:02:03Z</time>
      </trkpt>
      <trkpt lat="42.81545" lon="-0.20621">
        <ele>1956.4530029297</ele>
        <time>2014-03-10T07:02:38Z</time>
      </trkpt>
      <trkpt lat="42.81541" lon="-0.20627">
        <ele>1956.9019775391</ele>
        <time>2014-03-10T07:08:20Z</time>
      </trkpt>
      <trkpt lat="42.81535" lon="-0.20646">
        <ele>1959.4389648438</ele>
        <time>2014-03-10T07:08:44Z</time>
      </trkpt>
      <trkpt lat="42.81529" lon="-0.20661">
        <ele>1961.7060546875</ele>
        <time>2014-03-10T07:09:02Z</time>
      </trkpt>
      <trkpt lat="42.81524" lon="-0.20678">
        <ele>1964.708984375</ele>
        <time>2014-03-10T07:09:22Z</time>
      </trkpt>
      <trkpt lat="42.8152" lon="-0.20695">
        <ele>1967.1850585938</ele>
        <time>2014-03-10T07:09:41Z</time>
      </trkpt>
      <trkpt lat="42.8152" lon="-0.20699">
        <ele>1968.1899414062</ele>
        <time>2014-03-10T07:10:12Z</time>
      </trkpt>
      <trkpt lat="42.81519" lon="-0.20705">
        <ele>1970.0310058594</ele>
        <time>2014-03-10T07:10:59Z</time>
      </trkpt>
      <trkpt lat="42.81512" lon="-0.20714">
        <ele>1971.2099609375</ele>
        <time>2014-03-10T07:11:40Z</time>
      </trkpt>
      <trkpt lat="42.81501" lon="-0.20725">
        <ele>1974.6829833984</ele>
        <time>2014-03-10T07:11:59Z</time>
      </trkpt>
      <trkpt lat="42.81491" lon="-0.20739">
        <ele>1978.2370605469</ele>
        <time>2014-03-10T07:12:23Z</time>
      </trkpt>
      <trkpt lat="42.8148" lon="-0.20753">
        <ele>1981.2919921875</ele>
        <time>2014-03-10T07:12:51Z</time>
      </trkpt>
      <trkpt lat="42.8147" lon="-0.20766">
        <ele>1984.6130371094</ele>
        <time>2014-03-10T07:13:13Z</time>
      </trkpt>
      <trkpt lat="42.81459" lon="-0.20776">
        <ele>1987.9930419922</ele>
        <time>2014-03-10T07:13:37Z</time>
      </trkpt>
      <trkpt lat="42.81465" lon="-0.20778">
        <ele>1990.0649414062</ele>
        <time>2014-03-10T07:13:59Z</time>
      </trkpt>
      <trkpt lat="42.81469" lon="-0.20782">
        <ele>1992.33203125</ele>
        <time>2014-03-10T07:14:19Z</time>
      </trkpt>
      <trkpt lat="42.81461" lon="-0.20792">
        <ele>1995.3399658203</ele>
        <time>2014-03-10T07:14:42Z</time>
      </trkpt>
      <trkpt lat="42.81472" lon="-0.20796">
        <ele>1997.7039794922</ele>
        <time>2014-03-10T07:15:05Z</time>
      </trkpt>
      <trkpt lat="42.81465" lon="-0.20808">
        <ele>2000.4429931641</ele>
        <time>2014-03-10T07:15:24Z</time>
      </trkpt>
      <trkpt lat="42.8146" lon="-0.20818">
        <ele>2003.8659667969</ele>
        <time>2014-03-10T07:15:46Z</time>
      </trkpt>
      <trkpt lat="42.8147" lon="-0.20822">
        <ele>2006.9399414062</ele>
        <time>2014-03-10T07:16:10Z</time>
      </trkpt>
      <trkpt lat="42.8148" lon="-0.2082">
        <ele>2009.8039550781</ele>
        <time>2014-03-10T07:16:32Z</time>
      </trkpt>
      <trkpt lat="42.81479" lon="-0.20831">
        <ele>2010.3000488281</ele>
        <time>2014-03-10T07:16:46Z</time>
      </trkpt>
      <trkpt lat="42.81469" lon="-0.20842">
        <ele>2013.3809814453</ele>
        <time>2014-03-10T07:17:12Z</time>
      </trkpt>
      <trkpt lat="42.81473" lon="-0.20846">
        <ele>2014.9000244141</ele>
        <time>2014-03-10T07:17:28Z</time>
      </trkpt>
      <trkpt lat="42.81482" lon="-0.20846">
        <ele>2018.0760498047</ele>
        <time>2014-03-10T07:17:45Z</time>
      </trkpt>
      <trkpt lat="42.81497" lon="-0.20836">
        <ele>2021.1820068359</ele>
        <time>2014-03-10T07:18:12Z</time>
      </trkpt>
      <trkpt lat="42.81507" lon="-0.2082">
        <ele>2024.1860351562</ele>
        <time>2014-03-10T07:18:40Z</time>
      </trkpt>
      <trkpt lat="42.81518" lon="-0.2082">
        <ele>2027.458984375</ele>
        <time>2014-03-10T07:19:05Z</time>
      </trkpt>
      <trkpt lat="42.81525" lon="-0.20824">
        <ele>2028.748046875</ele>
        <time>2014-03-10T07:19:21Z</time>
      </trkpt>
      <trkpt lat="42.81529" lon="-0.20835">
        <ele>2032.0479736328</ele>
        <time>2014-03-10T07:19:43Z</time>
      </trkpt>
      <trkpt lat="42.81526" lon="-0.20846">
        <ele>2035.1939697266</ele>
        <time>2014-03-10T07:20:08Z</time>
      </trkpt>
      <trkpt lat="42.81532" lon="-0.20849">
        <ele>2036.6290283203</ele>
        <time>2014-03-10T07:20:22Z</time>
      </trkpt>
      <trkpt lat="42.81543" lon="-0.20856">
        <ele>2039.66796875</ele>
        <time>2014-03-10T07:20:44Z</time>
      </trkpt>
      <trkpt lat="42.8155" lon="-0.20858">
        <ele>2040.9449462891</ele>
        <time>2014-03-10T07:20:58Z</time>
      </trkpt>
      <trkpt lat="42.81553" lon="-0.2086">
        <ele>2041.3360595703</ele>
        <time>2014-03-10T07:21:03Z</time>
      </trkpt>
      <trkpt lat="42.81564" lon="-0.20861">
        <ele>2043.3830566406</ele>
        <time>2014-03-10T07:21:23Z</time>
      </trkpt>
      <trkpt lat="42.81578" lon="-0.20869">
        <ele>2046.6109619141</ele>
        <time>2014-03-10T07:21:46Z</time>
      </trkpt>
      <trkpt lat="42.81588" lon="-0.20869">
        <ele>2049.7270507812</ele>
        <time>2014-03-10T07:22:07Z</time>
      </trkpt>
      <trkpt lat="42.81596" lon="-0.20859">
        <ele>2052.8679199219</ele>
        <time>2014-03-10T07:22:28Z</time>
      </trkpt>
      <trkpt lat="42.81605" lon="-0.20856">
        <ele>2054.8249511719</ele>
        <time>2014-03-10T07:22:58Z</time>
      </trkpt>
      <trkpt lat="42.81606" lon="-0.20874">
        <ele>2056.3010253906</ele>
        <time>2014-03-10T07:23:20Z</time>
      </trkpt>
      <trkpt lat="42.81601" lon="-0.20892">
        <ele>2059.7819824219</ele>
        <time>2014-03-10T07:23:49Z</time>
      </trkpt>
      <trkpt lat="42.81598" lon="-0.20908">
        <ele>2062.8110351562</ele>
        <time>2014-03-10T07:24:12Z</time>
      </trkpt>
      <trkpt lat="42.81599" lon="-0.20914">
        <ele>2064.5119628906</ele>
        <time>2014-03-10T07:24:36Z</time>
      </trkpt>
      <trkpt lat="42.81606" lon="-0.2091">
        <ele>2067.7590332031</ele>
        <time>2014-03-10T07:24:51Z</time>
      </trkpt>
      <trkpt lat="42.81614" lon="-0.20906">
        <ele>2068.8500976562</ele>
        <time>2014-03-10T07:25:32Z</time>
      </trkpt>
      <trkpt lat="42.81619" lon="-0.20911">
        <ele>2071.7219238281</ele>
        <time>2014-03-10T07:25:52Z</time>
      </trkpt>
      <trkpt lat="42.81615" lon="-0.20929">
        <ele>2074.7119140625</ele>
        <time>2014-03-10T07:26:12Z</time>
      </trkpt>
      <trkpt lat="42.81618" lon="-0.20932">
        <ele>2078.4519042969</ele>
        <time>2014-03-10T07:26:38Z</time>
      </trkpt>
      <trkpt lat="42.81631" lon="-0.20928">
        <ele>2080.7429199219</ele>
        <time>2014-03-10T07:27:03Z</time>
      </trkpt>
      <trkpt lat="42.81628" lon="-0.20943">
        <ele>2082.8020019531</ele>
        <time>2014-03-10T07:27:19Z</time>
      </trkpt>
      <trkpt lat="42.81629" lon="-0.20946">
        <ele>2084.7980957031</ele>
        <time>2014-03-10T07:27:38Z</time>
      </trkpt>
      <trkpt lat="42.81636" lon="-0.20937">
        <ele>2088.2561035156</ele>
        <time>2014-03-10T07:28:03Z</time>
      </trkpt>
      <trkpt lat="42.81641" lon="-0.20934">
        <ele>2089.0959472656</ele>
        <time>2014-03-10T07:28:22Z</time>
      </trkpt>
      <trkpt lat="42.8164" lon="-0.20943">
        <ele>2090.3330078125</ele>
        <time>2014-03-10T07:28:37Z</time>
      </trkpt>
      <trkpt lat="42.81637" lon="-0.20959">
        <ele>2092.9079589844</ele>
        <time>2014-03-10T07:29:02Z</time>
      </trkpt>
      <trkpt lat="42.81634" lon="-0.20968">
        <ele>2094.4499511719</ele>
        <time>2014-03-10T07:29:26Z</time>
      </trkpt>
      <trkpt lat="42.81637" lon="-0.20967">
        <ele>2096.5549316406</ele>
        <time>2014-03-10T07:29:43Z</time>
      </trkpt>
      <trkpt lat="42.81648" lon="-0.20955">
        <ele>2099.0270996094</ele>
        <time>2014-03-10T07:30:03Z</time>
      </trkpt>
      <trkpt lat="42.81657" lon="-0.20948">
        <ele>2101.4489746094</ele>
        <time>2014-03-10T07:30:26Z</time>
      </trkpt>
      <trkpt lat="42.81659" lon="-0.20949">
        <ele>2101.8979492188</ele>
        <time>2014-03-10T07:30:45Z</time>
      </trkpt>
      <trkpt lat="42.81657" lon="-0.20965">
        <ele>2104.5119628906</ele>
        <time>2014-03-10T07:31:04Z</time>
      </trkpt>
      <trkpt lat="42.81651" lon="-0.20977">
        <ele>2105.9318847656</ele>
        <time>2014-03-10T07:31:26Z</time>
      </trkpt>
      <trkpt lat="42.81638" lon="-0.20993">
        <ele>2108.1188964844</ele>
        <time>2014-03-10T07:31:52Z</time>
      </trkpt>
      <trkpt lat="42.81628" lon="-0.20999">
        <ele>2111.5109863281</ele>
        <time>2014-03-10T07:32:12Z</time>
      </trkpt>
      <trkpt lat="42.8162" lon="-0.21009">
        <ele>2113.6088867188</ele>
        <time>2014-03-10T07:32:34Z</time>
      </trkpt>
      <trkpt lat="42.8161" lon="-0.21016">
        <ele>2116.8200683594</ele>
        <time>2014-03-10T07:32:55Z</time>
      </trkpt>
      <trkpt lat="42.8161" lon="-0.21018">
        <ele>2119.0109863281</ele>
        <time>2014-03-10T07:33:14Z</time>
      </trkpt>
      <trkpt lat="42.81626" lon="-0.21026">
        <ele>2122.2600097656</ele>
        <time>2014-03-10T07:33:37Z</time>
      </trkpt>
      <trkpt lat="42.81638" lon="-0.21026">
        <ele>2125.4370117188</ele>
        <time>2014-03-10T07:34:00Z</time>
      </trkpt>
      <trkpt lat="42.81648" lon="-0.21031">
        <ele>2128.1560058594</ele>
        <time>2014-03-10T07:34:25Z</time>
      </trkpt>
      <trkpt lat="42.81652" lon="-0.21033">
        <ele>2129.5</ele>
        <time>2014-03-10T07:34:42Z</time>
      </trkpt>
      <trkpt lat="42.81641" lon="-0.21044">
        <ele>2132.625</ele>
        <time>2014-03-10T07:35:05Z</time>
      </trkpt>
      <trkpt lat="42.81632" lon="-0.21056">
        <ele>2135.7399902344</ele>
        <time>2014-03-10T07:35:28Z</time>
      </trkpt>
      <trkpt lat="42.81625" lon="-0.21066">
        <ele>2138.8110351562</ele>
        <time>2014-03-10T07:35:51Z</time>
      </trkpt>
      <trkpt lat="42.81635" lon="-0.21069">
        <ele>2141.3068847656</ele>
        <time>2014-03-10T07:36:06Z</time>
      </trkpt>
      <trkpt lat="42.81649" lon="-0.21069">
        <ele>2144.4309082031</ele>
        <time>2014-03-10T07:36:28Z</time>
      </trkpt>
      <trkpt lat="42.81656" lon="-0.21074">
        <ele>2145.0270996094</ele>
        <time>2014-03-10T07:36:45Z</time>
      </trkpt>
      <trkpt lat="42.81655" lon="-0.21074">
        <ele>2143.4970703125</ele>
        <time>2014-03-10T07:36:53Z</time>
      </trkpt>
      <trkpt lat="42.81654" lon="-0.21073">
        <ele>2142.3859863281</ele>
        <time>2014-03-10T07:37:06Z</time>
      </trkpt>
      <trkpt lat="42.81654" lon="-0.21073">
        <ele>2144.4489746094</ele>
        <time>2014-03-10T07:37:09Z</time>
      </trkpt>
      <trkpt lat="42.81659" lon="-0.2108">
        <ele>2147.5759277344</ele>
        <time>2014-03-10T07:41:11Z</time>
      </trkpt>
      <trkpt lat="42.81668" lon="-0.21085">
        <ele>2149.2700195312</ele>
        <time>2014-03-10T07:41:24Z</time>
      </trkpt>
      <trkpt lat="42.81673" lon="-0.21085">
        <ele>2152.0219726562</ele>
        <time>2014-03-10T07:41:39Z</time>
      </trkpt>
      <trkpt lat="42.81672" lon="-0.21095">
        <ele>2153.7790527344</ele>
        <time>2014-03-10T07:41:54Z</time>
      </trkpt>
      <trkpt lat="42.81667" lon="-0.21107">
        <ele>2156.9460449219</ele>
        <time>2014-03-10T07:42:11Z</time>
      </trkpt>
      <trkpt lat="42.81662" lon="-0.21115">
        <ele>2160.4208984375</ele>
        <time>2014-03-10T07:42:32Z</time>
      </trkpt>
      <trkpt lat="42.81672" lon="-0.21126">
        <ele>2163.8459472656</ele>
        <time>2014-03-10T07:42:57Z</time>
      </trkpt>
      <trkpt lat="42.81683" lon="-0.21124">
        <ele>2167.2270507812</ele>
        <time>2014-03-10T07:43:16Z</time>
      </trkpt>
      <trkpt lat="42.81686" lon="-0.21129">
        <ele>2170.0659179688</ele>
        <time>2014-03-10T07:43:36Z</time>
      </trkpt>
      <trkpt lat="42.81686" lon="-0.21145">
        <ele>2173.6259765625</ele>
        <time>2014-03-10T07:43:57Z</time>
      </trkpt>
      <trkpt lat="42.81686" lon="-0.21159">
        <ele>2176.62890625</ele>
        <time>2014-03-10T07:44:16Z</time>
      </trkpt>
      <trkpt lat="42.81676" lon="-0.2117">
        <ele>2179.5358886719</ele>
        <time>2014-03-10T07:44:39Z</time>
      </trkpt>
      <trkpt lat="42.81689" lon="-0.21182">
        <ele>2182.5490722656</ele>
        <time>2014-03-10T07:45:05Z</time>
      </trkpt>
      <trkpt lat="42.81697" lon="-0.21187">
        <ele>2185.3168945312</ele>
        <time>2014-03-10T07:45:30Z</time>
      </trkpt>
      <trkpt lat="42.81691" lon="-0.21203">
        <ele>2187.4509277344</ele>
        <time>2014-03-10T07:46:12Z</time>
      </trkpt>
      <trkpt lat="42.8169" lon="-0.21221">
        <ele>2190.5910644531</ele>
        <time>2014-03-10T07:46:30Z</time>
      </trkpt>
      <trkpt lat="42.81681" lon="-0.21226">
        <ele>2193.8640136719</ele>
        <time>2014-03-10T07:46:47Z</time>
      </trkpt>
      <trkpt lat="42.81674" lon="-0.21226">
        <ele>2193.5959472656</ele>
        <time>2014-03-10T07:47:19Z</time>
      </trkpt>
      <trkpt lat="42.81675" lon="-0.21225">
        <ele>2196.7590332031</ele>
        <time>2014-03-10T07:59:08Z</time>
      </trkpt>
      <trkpt lat="42.8167" lon="-0.21238">
        <ele>2199.7780761719</ele>
        <time>2014-03-10T08:00:57Z</time>
      </trkpt>
      <trkpt lat="42.81666" lon="-0.21263">
        <ele>2202.8090820312</ele>
        <time>2014-03-10T08:01:24Z</time>
      </trkpt>
      <trkpt lat="42.81651" lon="-0.21275">
        <ele>2205.9399414062</ele>
        <time>2014-03-10T08:01:50Z</time>
      </trkpt>
      <trkpt lat="42.81642" lon="-0.21289">
        <ele>2208.1088867188</ele>
        <time>2014-03-10T08:02:14Z</time>
      </trkpt>
      <trkpt lat="42.81639" lon="-0.21306">
        <ele>2211.1669921875</ele>
        <time>2014-03-10T08:02:32Z</time>
      </trkpt>
      <trkpt lat="42.81638" lon="-0.21329">
        <ele>2214.7380371094</ele>
        <time>2014-03-10T08:02:57Z</time>
      </trkpt>
      <trkpt lat="42.81634" lon="-0.2135">
        <ele>2217.9069824219</ele>
        <time>2014-03-10T08:03:22Z</time>
      </trkpt>
      <trkpt lat="42.81633" lon="-0.2136">
        <ele>2219.5500488281</ele>
        <time>2014-03-10T08:03:50Z</time>
      </trkpt>
      <trkpt lat="42.81629" lon="-0.21374">
        <ele>2222.5290527344</ele>
        <time>2014-03-10T08:04:13Z</time>
      </trkpt>
      <trkpt lat="42.81618" lon="-0.21382">
        <ele>2225.9040527344</ele>
        <time>2014-03-10T08:04:32Z</time>
      </trkpt>
      <trkpt lat="42.81604" lon="-0.21388">
        <ele>2229.044921875</ele>
        <time>2014-03-10T08:04:53Z</time>
      </trkpt>
      <trkpt lat="42.81595" lon="-0.21385">
        <ele>2232.3540039062</ele>
        <time>2014-03-10T08:05:14Z</time>
      </trkpt>
      <trkpt lat="42.81592" lon="-0.21383">
        <ele>2234.6040039062</ele>
        <time>2014-03-10T08:05:45Z</time>
      </trkpt>
      <trkpt lat="42.81595" lon="-0.21395">
        <ele>2236.9851074219</ele>
        <time>2014-03-10T08:06:17Z</time>
      </trkpt>
      <trkpt lat="42.81592" lon="-0.214">
        <ele>2238.4169921875</ele>
        <time>2014-03-10T08:06:36Z</time>
      </trkpt>
      <trkpt lat="42.81582" lon="-0.21409">
        <ele>2241.5170898438</ele>
        <time>2014-03-10T08:06:53Z</time>
      </trkpt>
      <trkpt lat="42.81577" lon="-0.21413">
        <ele>2244.6320800781</ele>
        <time>2014-03-10T08:07:07Z</time>
      </trkpt>
      <trkpt lat="42.81588" lon="-0.21421">
        <ele>2248.0939941406</ele>
        <time>2014-03-10T08:07:28Z</time>
      </trkpt>
      <trkpt lat="42.81596" lon="-0.21434">
        <ele>2251.2729492188</ele>
        <time>2014-03-10T08:07:49Z</time>
      </trkpt>
      <trkpt lat="42.8159" lon="-0.21448">
        <ele>2253.8549804688</ele>
        <time>2014-03-10T08:08:09Z</time>
      </trkpt>
      <trkpt lat="42.81581" lon="-0.21465">
        <ele>2257.0419921875</ele>
        <time>2014-03-10T08:08:33Z</time>
      </trkpt>
      <trkpt lat="42.81574" lon="-0.21475">
        <ele>2260.5559082031</ele>
        <time>2014-03-10T08:08:51Z</time>
      </trkpt>
      <trkpt lat="42.81575" lon="-0.21483">
        <ele>2263.1899414062</ele>
        <time>2014-03-10T08:09:14Z</time>
      </trkpt>
      <trkpt lat="42.81562" lon="-0.21483">
        <ele>2266.9719238281</ele>
        <time>2014-03-10T08:09:35Z</time>
      </trkpt>
      <trkpt lat="42.81555" lon="-0.21488">
        <ele>2269.6149902344</ele>
        <time>2014-03-10T08:09:58Z</time>
      </trkpt>
      <trkpt lat="42.8155" lon="-0.21502">
        <ele>2272.6599121094</ele>
        <time>2014-03-10T08:10:19Z</time>
      </trkpt>
      <trkpt lat="42.8154" lon="-0.21509">
        <ele>2275.7580566406</ele>
        <time>2014-03-10T08:10:38Z</time>
      </trkpt>
      <trkpt lat="42.81533" lon="-0.21519">
        <ele>2276.4169921875</ele>
        <time>2014-03-10T08:10:59Z</time>
      </trkpt>
      <trkpt lat="42.81529" lon="-0.21542">
        <ele>2277.2580566406</ele>
        <time>2014-03-10T08:11:22Z</time>
      </trkpt>
      <trkpt lat="42.81525" lon="-0.21565">
        <ele>2278.3679199219</ele>
        <time>2014-03-10T08:11:47Z</time>
      </trkpt>
      <trkpt lat="42.81527" lon="-0.21591">
        <ele>2279.79296875</ele>
        <time>2014-03-10T08:12:12Z</time>
      </trkpt>
      <trkpt lat="42.81532" lon="-0.21617">
        <ele>2281.6599121094</ele>
        <time>2014-03-10T08:12:40Z</time>
      </trkpt>
      <trkpt lat="42.81535" lon="-0.2163">
        <ele>2282.4250488281</ele>
        <time>2014-03-10T08:12:55Z</time>
      </trkpt>
      <trkpt lat="42.81545" lon="-0.21655">
        <ele>2283.6079101562</ele>
        <time>2014-03-10T08:13:23Z</time>
      </trkpt>
      <trkpt lat="42.81555" lon="-0.21673">
        <ele>2286.9689941406</ele>
        <time>2014-03-10T08:13:48Z</time>
      </trkpt>
      <trkpt lat="42.81555" lon="-0.21673">
        <ele>2286.9719238281</ele>
        <time>2014-03-10T08:13:49Z</time>
      </trkpt>
      <trkpt lat="42.81556" lon="-0.21686">
        <ele>2288.9030761719</ele>
        <time>2014-03-10T08:14:13Z</time>
      </trkpt>
      <trkpt lat="42.81555" lon="-0.21702">
        <ele>2291.9418945312</ele>
        <time>2014-03-10T08:14:34Z</time>
      </trkpt>
      <trkpt lat="42.81554" lon="-0.21717">
        <ele>2295.1508789062</ele>
        <time>2014-03-10T08:14:53Z</time>
      </trkpt>
      <trkpt lat="42.81551" lon="-0.21734">
        <ele>2298.4838867188</ele>
        <time>2014-03-10T08:15:22Z</time>
      </trkpt>
      <trkpt lat="42.81549" lon="-0.21747">
        <ele>2301.2661132812</ele>
        <time>2014-03-10T08:15:53Z</time>
      </trkpt>
      <trkpt lat="42.81544" lon="-0.21738">
        <ele>2303.3400878906</ele>
        <time>2014-03-10T08:16:13Z</time>
      </trkpt>
      <trkpt lat="42.8154" lon="-0.21742">
        <ele>2304.7199707031</ele>
        <time>2014-03-10T08:16:38Z</time>
      </trkpt>
      <trkpt lat="42.81539" lon="-0.21754">
        <ele>2307.74609375</ele>
        <time>2014-03-10T08:16:58Z</time>
      </trkpt>
      <trkpt lat="42.81538" lon="-0.21771">
        <ele>2310.7858886719</ele>
        <time>2014-03-10T08:17:21Z</time>
      </trkpt>
      <trkpt lat="42.81535" lon="-0.21784">
        <ele>2313.8869628906</ele>
        <time>2014-03-10T08:17:42Z</time>
      </trkpt>
      <trkpt lat="42.81531" lon="-0.21806">
        <ele>2316.4079589844</ele>
        <time>2014-03-10T08:18:09Z</time>
      </trkpt>
      <trkpt lat="42.81526" lon="-0.21827">
        <ele>2319.7600097656</ele>
        <time>2014-03-10T08:18:37Z</time>
      </trkpt>
      <trkpt lat="42.81521" lon="-0.21851">
        <ele>2322.919921875</ele>
        <time>2014-03-10T08:19:09Z</time>
      </trkpt>
      <trkpt lat="42.81524" lon="-0.2187">
        <ele>2325.9819335938</ele>
        <time>2014-03-10T08:19:37Z</time>
      </trkpt>
      <trkpt lat="42.81524" lon="-0.21891">
        <ele>2329.3688964844</ele>
        <time>2014-03-10T08:20:07Z</time>
      </trkpt>
      <trkpt lat="42.81516" lon="-0.21906">
        <ele>2332.3820800781</ele>
        <time>2014-03-10T08:20:35Z</time>
      </trkpt>
      <trkpt lat="42.81509" lon="-0.21922">
        <ele>2334.5869140625</ele>
        <time>2014-03-10T08:21:04Z</time>
      </trkpt>
      <trkpt lat="42.81511" lon="-0.21941">
        <ele>2336.5439453125</ele>
        <time>2014-03-10T08:21:33Z</time>
      </trkpt>
      <trkpt lat="42.81514" lon="-0.2196">
        <ele>2339.875</ele>
        <time>2014-03-10T08:22:01Z</time>
      </trkpt>
      <trkpt lat="42.81514" lon="-0.21973">
        <ele>2342.9838867188</ele>
        <time>2014-03-10T08:22:22Z</time>
      </trkpt>
      <trkpt lat="42.81513" lon="-0.21978">
        <ele>2344.3999023438</ele>
        <time>2014-03-10T08:22:30Z</time>
      </trkpt>
      <trkpt lat="42.8151" lon="-0.21997">
        <ele>2347.6140136719</ele>
        <time>2014-03-10T08:22:56Z</time>
      </trkpt>
      <trkpt lat="42.81506" lon="-0.22023">
        <ele>2350.8969726562</ele>
        <time>2014-03-10T08:23:29Z</time>
      </trkpt>
      <trkpt lat="42.81505" lon="-0.22034">
        <ele>2354.3029785156</ele>
        <time>2014-03-10T08:23:49Z</time>
      </trkpt>
      <trkpt lat="42.81504" lon="-0.22048">
        <ele>2357.7260742188</ele>
        <time>2014-03-10T08:24:11Z</time>
      </trkpt>
      <trkpt lat="42.81506" lon="-0.22061">
        <ele>2360.794921875</ele>
        <time>2014-03-10T08:24:33Z</time>
      </trkpt>
      <trkpt lat="42.81506" lon="-0.2207">
        <ele>2363.8701171875</ele>
        <time>2014-03-10T08:24:52Z</time>
      </trkpt>
      <trkpt lat="42.81504" lon="-0.22081">
        <ele>2367.4289550781</ele>
        <time>2014-03-10T08:25:15Z</time>
      </trkpt>
      <trkpt lat="42.81506" lon="-0.22095">
        <ele>2370.9140625</ele>
        <time>2014-03-10T08:25:41Z</time>
      </trkpt>
      <trkpt lat="42.8151" lon="-0.22106">
        <ele>2373.9670410156</ele>
        <time>2014-03-10T08:26:01Z</time>
      </trkpt>
      <trkpt lat="42.81507" lon="-0.22117">
        <ele>2376.0458984375</ele>
        <time>2014-03-10T08:26:19Z</time>
      </trkpt>
      <trkpt lat="42.81494" lon="-0.2212">
        <ele>2378.7729492188</ele>
        <time>2014-03-10T08:26:40Z</time>
      </trkpt>
      <trkpt lat="42.81501" lon="-0.22131">
        <ele>2381.8820800781</ele>
        <time>2014-03-10T08:27:04Z</time>
      </trkpt>
      <trkpt lat="42.81501" lon="-0.22142">
        <ele>2384.9250488281</ele>
        <time>2014-03-10T08:27:23Z</time>
      </trkpt>
      <trkpt lat="42.81496" lon="-0.22153">
        <ele>2388.0559082031</ele>
        <time>2014-03-10T08:27:43Z</time>
      </trkpt>
      <trkpt lat="42.81492" lon="-0.22165">
        <ele>2391.8020019531</ele>
        <time>2014-03-10T08:28:06Z</time>
      </trkpt>
      <trkpt lat="42.81486" lon="-0.22178">
        <ele>2394.8669433594</ele>
        <time>2014-03-10T08:28:27Z</time>
      </trkpt>
      <trkpt lat="42.81483" lon="-0.22192">
        <ele>2398.1850585938</ele>
        <time>2014-03-10T08:28:48Z</time>
      </trkpt>
      <trkpt lat="42.81478" lon="-0.22209">
        <ele>2401.1350097656</ele>
        <time>2014-03-10T08:29:15Z</time>
      </trkpt>
      <trkpt lat="42.81484" lon="-0.22221">
        <ele>2404.1369628906</ele>
        <time>2014-03-10T08:29:34Z</time>
      </trkpt>
      <trkpt lat="42.81494" lon="-0.22223">
        <ele>2406.7019042969</ele>
        <time>2014-03-10T08:29:51Z</time>
      </trkpt>
      <trkpt lat="42.81491" lon="-0.22228">
        <ele>2407.7470703125</ele>
        <time>2014-03-10T08:30:05Z</time>
      </trkpt>
      <trkpt lat="42.81484" lon="-0.22241">
        <ele>2410.748046875</ele>
        <time>2014-03-10T08:30:25Z</time>
      </trkpt>
      <trkpt lat="42.81475" lon="-0.22249">
        <ele>2413.9970703125</ele>
        <time>2014-03-10T08:30:46Z</time>
      </trkpt>
      <trkpt lat="42.81477" lon="-0.22251">
        <ele>2415.3310546875</ele>
        <time>2014-03-10T08:31:02Z</time>
      </trkpt>
      <trkpt lat="42.81487" lon="-0.22255">
        <ele>2418.4250488281</ele>
        <time>2014-03-10T08:31:21Z</time>
      </trkpt>
      <trkpt lat="42.81482" lon="-0.22262">
        <ele>2419.7880859375</ele>
        <time>2014-03-10T08:31:37Z</time>
      </trkpt>
      <trkpt lat="42.81472" lon="-0.2227">
        <ele>2422.7890625</ele>
        <time>2014-03-10T08:31:54Z</time>
      </trkpt>
      <trkpt lat="42.8147" lon="-0.22286">
        <ele>2425.8959960938</ele>
        <time>2014-03-10T08:32:17Z</time>
      </trkpt>
      <trkpt lat="42.81468" lon="-0.22294">
        <ele>2427.6411132812</ele>
        <time>2014-03-10T08:32:38Z</time>
      </trkpt>
      <trkpt lat="42.81464" lon="-0.22317">
        <ele>2429.9528808594</ele>
        <time>2014-03-10T08:33:00Z</time>
      </trkpt>
      <trkpt lat="42.81461" lon="-0.22338">
        <ele>2431.8859863281</ele>
        <time>2014-03-10T08:33:19Z</time>
      </trkpt>
      <trkpt lat="42.81451" lon="-0.22357">
        <ele>2432.8950195312</ele>
        <time>2014-03-10T08:33:39Z</time>
      </trkpt>
      <trkpt lat="42.8144" lon="-0.22373">
        <ele>2435.0600585938</ele>
        <time>2014-03-10T08:33:58Z</time>
      </trkpt>
      <trkpt lat="42.81425" lon="-0.2239">
        <ele>2437.9130859375</ele>
        <time>2014-03-10T08:34:26Z</time>
      </trkpt>
      <trkpt lat="42.81406" lon="-0.22398">
        <ele>2439.8291015625</ele>
        <time>2014-03-10T08:34:54Z</time>
      </trkpt>
      <trkpt lat="42.814" lon="-0.22402">
        <ele>2440.3330078125</ele>
        <time>2014-03-10T08:35:04Z</time>
      </trkpt>
      <trkpt lat="42.81387" lon="-0.22416">
        <ele>2441.4079589844</ele>
        <time>2014-03-10T08:35:24Z</time>
      </trkpt>
      <trkpt lat="42.81381" lon="-0.22447">
        <ele>2443.9379882812</ele>
        <time>2014-03-10T08:35:55Z</time>
      </trkpt>
      <trkpt lat="42.81376" lon="-0.22466">
        <ele>2444.8068847656</ele>
        <time>2014-03-10T08:36:17Z</time>
      </trkpt>
      <trkpt lat="42.81367" lon="-0.22485">
        <ele>2446.25</ele>
        <time>2014-03-10T08:36:39Z</time>
      </trkpt>
      <trkpt lat="42.81362" lon="-0.22507">
        <ele>2447.9670410156</ele>
        <time>2014-03-10T08:37:01Z</time>
      </trkpt>
      <trkpt lat="42.81351" lon="-0.22524">
        <ele>2450.4260253906</ele>
        <time>2014-03-10T08:37:23Z</time>
      </trkpt>
      <trkpt lat="42.81341" lon="-0.22544">
        <ele>2453.8190917969</ele>
        <time>2014-03-10T08:37:52Z</time>
      </trkpt>
      <trkpt lat="42.8133" lon="-0.22565">
        <ele>2456.8310546875</ele>
        <time>2014-03-10T08:38:22Z</time>
      </trkpt>
      <trkpt lat="42.81325" lon="-0.22581">
        <ele>2459.9619140625</ele>
        <time>2014-03-10T08:38:44Z</time>
      </trkpt>
      <trkpt lat="42.81316" lon="-0.22602">
        <ele>2463.1179199219</ele>
        <time>2014-03-10T08:39:16Z</time>
      </trkpt>
      <trkpt lat="42.81316" lon="-0.22616">
        <ele>2466.2080078125</ele>
        <time>2014-03-10T08:39:37Z</time>
      </trkpt>
      <trkpt lat="42.81318" lon="-0.22633">
        <ele>2469.4689941406</ele>
        <time>2014-03-10T08:40:02Z</time>
      </trkpt>
      <trkpt lat="42.81318" lon="-0.22633">
        <ele>2466.0930175781</ele>
        <time>2014-03-10T08:40:20Z</time>
      </trkpt>
      <trkpt lat="42.81318" lon="-0.22633">
        <ele>2467.5148925781</ele>
        <time>2014-03-10T08:40:21Z</time>
      </trkpt>
      <trkpt lat="42.81318" lon="-0.22633">
        <ele>2470.0310058594</ele>
        <time>2014-03-10T08:40:56Z</time>
      </trkpt>
      <trkpt lat="42.81318" lon="-0.22633">
        <ele>2471.6579589844</ele>
        <time>2014-03-10T08:41:34Z</time>
      </trkpt>
      <trkpt lat="42.81318" lon="-0.22633">
        <ele>2470.0849609375</ele>
        <time>2014-03-10T08:41:36Z</time>
      </trkpt>
      <trkpt lat="42.81318" lon="-0.22633">
        <ele>2469.1950683594</ele>
        <time>2014-03-10T08:41:53Z</time>
      </trkpt>
      <trkpt lat="42.81318" lon="-0.22633">
        <ele>2470.7529296875</ele>
        <time>2014-03-10T08:41:55Z</time>
      </trkpt>
      <trkpt lat="42.81318" lon="-0.22633">
        <ele>2468.6279296875</ele>
        <time>2014-03-10T08:42:02Z</time>
      </trkpt>
      <trkpt lat="42.81318" lon="-0.22633">
        <ele>2471.5048828125</ele>
        <time>2014-03-10T08:42:04Z</time>
      </trkpt>
      <trkpt lat="42.81318" lon="-0.22633">
        <ele>2470.8430175781</ele>
        <time>2014-03-10T08:42:50Z</time>
      </trkpt>
      <trkpt lat="42.81314" lon="-0.22647">
        <ele>2472.7009277344</ele>
        <time>2014-03-10T08:44:15Z</time>
      </trkpt>
      <trkpt lat="42.8132" lon="-0.22669">
        <ele>2473.7299804688</ele>
        <time>2014-03-10T08:44:36Z</time>
      </trkpt>
      <trkpt lat="42.81326" lon="-0.22696">
        <ele>2472.8820800781</ele>
        <time>2014-03-10T08:44:55Z</time>
      </trkpt>
      <trkpt lat="42.8133" lon="-0.22725">
        <ele>2472.3010253906</ele>
        <time>2014-03-10T08:45:17Z</time>
      </trkpt>
      <trkpt lat="42.81333" lon="-0.22754">
        <ele>2474.087890625</ele>
        <time>2014-03-10T08:45:44Z</time>
      </trkpt>
      <trkpt lat="42.81342" lon="-0.22777">
        <ele>2473.9389648438</ele>
        <time>2014-03-10T08:46:06Z</time>
      </trkpt>
      <trkpt lat="42.81348" lon="-0.22805">
        <ele>2472.6040039062</ele>
        <time>2014-03-10T08:46:27Z</time>
      </trkpt>
      <trkpt lat="42.81343" lon="-0.22825">
        <ele>2472.4399414062</ele>
        <time>2014-03-10T08:46:42Z</time>
      </trkpt>
      <trkpt lat="42.81336" lon="-0.22853">
        <ele>2472.6430664062</ele>
        <time>2014-03-10T08:47:01Z</time>
      </trkpt>
      <trkpt lat="42.8133" lon="-0.22884">
        <ele>2472.7819824219</ele>
        <time>2014-03-10T08:47:24Z</time>
      </trkpt>
      <trkpt lat="42.81327" lon="-0.22911">
        <ele>2473.291015625</ele>
        <time>2014-03-10T08:47:45Z</time>
      </trkpt>
      <trkpt lat="42.81319" lon="-0.22941">
        <ele>2472.4990234375</ele>
        <time>2014-03-10T08:48:08Z</time>
      </trkpt>
      <trkpt lat="42.81307" lon="-0.22968">
        <ele>2475.2509765625</ele>
        <time>2014-03-10T08:48:36Z</time>
      </trkpt>
      <trkpt lat="42.81297" lon="-0.22991">
        <ele>2477.2670898438</ele>
        <time>2014-03-10T08:49:03Z</time>
      </trkpt>
      <trkpt lat="42.8129" lon="-0.23011">
        <ele>2479.9870605469</ele>
        <time>2014-03-10T08:49:28Z</time>
      </trkpt>
      <trkpt lat="42.81283" lon="-0.23018">
        <ele>2482.0349121094</ele>
        <time>2014-03-10T08:49:44Z</time>
      </trkpt>
      <trkpt lat="42.81274" lon="-0.23018">
        <ele>2484.4189453125</ele>
        <time>2014-03-10T08:50:03Z</time>
      </trkpt>
      <trkpt lat="42.81263" lon="-0.23025">
        <ele>2487.2028808594</ele>
        <time>2014-03-10T08:50:27Z</time>
      </trkpt>
      <trkpt lat="42.81265" lon="-0.23037">
        <ele>2490.0529785156</ele>
        <time>2014-03-10T08:50:46Z</time>
      </trkpt>
      <trkpt lat="42.81264" lon="-0.23052">
        <ele>2491.9169921875</ele>
        <time>2014-03-10T08:51:06Z</time>
      </trkpt>
      <trkpt lat="42.81263" lon="-0.23066">
        <ele>2494.7028808594</ele>
        <time>2014-03-10T08:51:27Z</time>
      </trkpt>
      <trkpt lat="42.81264" lon="-0.23077">
        <ele>2494.458984375</ele>
        <time>2014-03-10T08:51:43Z</time>
      </trkpt>
      <trkpt lat="42.81266" lon="-0.23088">
        <ele>2497.3491210938</ele>
        <time>2014-03-10T08:51:57Z</time>
      </trkpt>
      <trkpt lat="42.81266" lon="-0.23101">
        <ele>2499.162109375</ele>
        <time>2014-03-10T08:52:11Z</time>
      </trkpt>
      <trkpt lat="42.81264" lon="-0.23116">
        <ele>2500.7880859375</ele>
        <time>2014-03-10T08:52:28Z</time>
      </trkpt>
      <trkpt lat="42.81258" lon="-0.2313">
        <ele>2503.0710449219</ele>
        <time>2014-03-10T08:52:46Z</time>
      </trkpt>
      <trkpt lat="42.81252" lon="-0.23141">
        <ele>2505.5778808594</ele>
        <time>2014-03-10T08:53:07Z</time>
      </trkpt>
      <trkpt lat="42.81244" lon="-0.23156">
        <ele>2508.9389648438</ele>
        <time>2014-03-10T08:53:29Z</time>
      </trkpt>
      <trkpt lat="42.8124" lon="-0.23171">
        <ele>2511.9770507812</ele>
        <time>2014-03-10T08:53:54Z</time>
      </trkpt>
      <trkpt lat="42.81248" lon="-0.23179">
        <ele>2514.9079589844</ele>
        <time>2014-03-10T08:54:19Z</time>
      </trkpt>
      <trkpt lat="42.81248" lon="-0.23181">
        <ele>2515.6040039062</ele>
        <time>2014-03-10T08:54:21Z</time>
      </trkpt>
      <trkpt lat="42.81242" lon="-0.232">
        <ele>2516.9289550781</ele>
        <time>2014-03-10T08:54:44Z</time>
      </trkpt>
      <trkpt lat="42.81242" lon="-0.23208">
        <ele>2520.0900878906</ele>
        <time>2014-03-10T08:55:03Z</time>
      </trkpt>
      <trkpt lat="42.81248" lon="-0.23215">
        <ele>2522.4370117188</ele>
        <time>2014-03-10T08:55:22Z</time>
      </trkpt>
      <trkpt lat="42.81255" lon="-0.23224">
        <ele>2525.1140136719</ele>
        <time>2014-03-10T08:55:42Z</time>
      </trkpt>
      <trkpt lat="42.81257" lon="-0.2324">
        <ele>2526.7219238281</ele>
        <time>2014-03-10T08:56:07Z</time>
      </trkpt>
      <trkpt lat="42.81248" lon="-0.23252">
        <ele>2530.0729980469</ele>
        <time>2014-03-10T08:56:29Z</time>
      </trkpt>
      <trkpt lat="42.81242" lon="-0.23263">
        <ele>2532.6530761719</ele>
        <time>2014-03-10T08:56:51Z</time>
      </trkpt>
      <trkpt lat="42.81254" lon="-0.23271">
        <ele>2535.9580078125</ele>
        <time>2014-03-10T08:57:15Z</time>
      </trkpt>
      <trkpt lat="42.81264" lon="-0.23282">
        <ele>2539.0148925781</ele>
        <time>2014-03-10T08:57:41Z</time>
      </trkpt>
      <trkpt lat="42.81255" lon="-0.23291">
        <ele>2542.0349121094</ele>
        <time>2014-03-10T08:58:04Z</time>
      </trkpt>
      <trkpt lat="42.8125" lon="-0.23308">
        <ele>2545.2219238281</ele>
        <time>2014-03-10T08:58:28Z</time>
      </trkpt>
      <trkpt lat="42.81247" lon="-0.23325">
        <ele>2548.583984375</ele>
        <time>2014-03-10T08:58:53Z</time>
      </trkpt>
      <trkpt lat="42.81244" lon="-0.23341">
        <ele>2551.7900390625</ele>
        <time>2014-03-10T08:59:23Z</time>
      </trkpt>
      <trkpt lat="42.81247" lon="-0.23348">
        <ele>2554.8601074219</ele>
        <time>2014-03-10T08:59:39Z</time>
      </trkpt>
      <trkpt lat="42.81258" lon="-0.23365">
        <ele>2557.8059082031</ele>
        <time>2014-03-10T09:00:09Z</time>
      </trkpt>
      <trkpt lat="42.81261" lon="-0.23379">
        <ele>2560.8540039062</ele>
        <time>2014-03-10T09:00:32Z</time>
      </trkpt>
      <trkpt lat="42.81255" lon="-0.23395">
        <ele>2564.248046875</ele>
        <time>2014-03-10T09:00:58Z</time>
      </trkpt>
      <trkpt lat="42.8125" lon="-0.23406">
        <ele>2565.4670410156</ele>
        <time>2014-03-10T09:01:15Z</time>
      </trkpt>
      <trkpt lat="42.81247" lon="-0.23404">
        <ele>2565.6669921875</ele>
        <time>2014-03-10T09:01:56Z</time>
      </trkpt>
      <trkpt lat="42.81258" lon="-0.23416">
        <ele>2568.708984375</ele>
        <time>2014-03-10T09:03:08Z</time>
      </trkpt>
      <trkpt lat="42.81269" lon="-0.23417">
        <ele>2570.7160644531</ele>
        <time>2014-03-10T09:03:30Z</time>
      </trkpt>
      <trkpt lat="42.81279" lon="-0.23413">
        <ele>2572.6088867188</ele>
        <time>2014-03-10T09:03:49Z</time>
      </trkpt>
      <trkpt lat="42.8129" lon="-0.23406">
        <ele>2575.9890136719</ele>
        <time>2014-03-10T09:04:13Z</time>
      </trkpt>
      <trkpt lat="42.81296" lon="-0.23406">
        <ele>2577.79296875</ele>
        <time>2014-03-10T09:04:35Z</time>
      </trkpt>
      <trkpt lat="42.81297" lon="-0.23424">
        <ele>2581.1818847656</ele>
        <time>2014-03-10T09:04:59Z</time>
      </trkpt>
      <trkpt lat="42.81292" lon="-0.23443">
        <ele>2584.4838867188</ele>
        <time>2014-03-10T09:05:27Z</time>
      </trkpt>
      <trkpt lat="42.81292" lon="-0.23444">
        <ele>2584.4860839844</ele>
        <time>2014-03-10T09:05:28Z</time>
      </trkpt>
      <trkpt lat="42.81297" lon="-0.23445">
        <ele>2586.9528808594</ele>
        <time>2014-03-10T09:05:47Z</time>
      </trkpt>
      <trkpt lat="42.81308" lon="-0.23441">
        <ele>2590.2189941406</ele>
        <time>2014-03-10T09:06:08Z</time>
      </trkpt>
      <trkpt lat="42.81319" lon="-0.23438">
        <ele>2592.2629394531</ele>
        <time>2014-03-10T09:06:28Z</time>
      </trkpt>
      <trkpt lat="42.81318" lon="-0.23445">
        <ele>2593.3510742188</ele>
        <time>2014-03-10T09:06:47Z</time>
      </trkpt>
      <trkpt lat="42.81313" lon="-0.23461">
        <ele>2596.1411132812</ele>
        <time>2014-03-10T09:07:09Z</time>
      </trkpt>
      <trkpt lat="42.81323" lon="-0.23461">
        <ele>2598.501953125</ele>
        <time>2014-03-10T09:07:26Z</time>
      </trkpt>
      <trkpt lat="42.8133" lon="-0.23462">
        <ele>2599.9409179688</ele>
        <time>2014-03-10T09:07:49Z</time>
      </trkpt>
      <trkpt lat="42.81325" lon="-0.23472">
        <ele>2603.0700683594</ele>
        <time>2014-03-10T09:08:02Z</time>
      </trkpt>
      <trkpt lat="42.81325" lon="-0.23471">
        <ele>2603.0729980469</ele>
        <time>2014-03-10T09:08:03Z</time>
      </trkpt>
      <trkpt lat="42.81334" lon="-0.23467">
        <ele>2604.7490234375</ele>
        <time>2014-03-10T09:08:20Z</time>
      </trkpt>
      <trkpt lat="42.81353" lon="-0.23464">
        <ele>2607.0170898438</ele>
        <time>2014-03-10T09:08:42Z</time>
      </trkpt>
      <trkpt lat="42.8136" lon="-0.23461">
        <ele>2609.8259277344</ele>
        <time>2014-03-10T09:09:04Z</time>
      </trkpt>
      <trkpt lat="42.8135" lon="-0.23475">
        <ele>2611.251953125</ele>
        <time>2014-03-10T09:09:19Z</time>
      </trkpt>
      <trkpt lat="42.81347" lon="-0.23493">
        <ele>2614.4809570312</ele>
        <time>2014-03-10T09:09:43Z</time>
      </trkpt>
      <trkpt lat="42.81348" lon="-0.23497">
        <ele>2616.123046875</ele>
        <time>2014-03-10T09:09:58Z</time>
      </trkpt>
      <trkpt lat="42.81356" lon="-0.2349">
        <ele>2616.958984375</ele>
        <time>2014-03-10T09:10:12Z</time>
      </trkpt>
      <trkpt lat="42.8136" lon="-0.23492">
        <ele>2619.2119140625</ele>
        <time>2014-03-10T09:10:35Z</time>
      </trkpt>
      <trkpt lat="42.81356" lon="-0.2351">
        <ele>2621.7109375</ele>
        <time>2014-03-10T09:10:56Z</time>
      </trkpt>
      <trkpt lat="42.81356" lon="-0.23518">
        <ele>2625.0510253906</ele>
        <time>2014-03-10T09:11:19Z</time>
      </trkpt>
      <trkpt lat="42.81366" lon="-0.235">
        <ele>2627.8249511719</ele>
        <time>2014-03-10T09:11:43Z</time>
      </trkpt>
      <trkpt lat="42.8137" lon="-0.235">
        <ele>2629.5419921875</ele>
        <time>2014-03-10T09:12:01Z</time>
      </trkpt>
      <trkpt lat="42.81368" lon="-0.23507">
        <ele>2629.9689941406</ele>
        <time>2014-03-10T09:12:08Z</time>
      </trkpt>
      <trkpt lat="42.81367" lon="-0.23519">
        <ele>2633.4140625</ele>
        <time>2014-03-10T09:12:26Z</time>
      </trkpt>
      <trkpt lat="42.81377" lon="-0.23513">
        <ele>2634.8640136719</ele>
        <time>2014-03-10T09:12:43Z</time>
      </trkpt>
      <trkpt lat="42.81371" lon="-0.23521">
        <ele>2636.4619140625</ele>
        <time>2014-03-10T09:13:00Z</time>
      </trkpt>
      <trkpt lat="42.81371" lon="-0.23522">
        <ele>2637.29296875</ele>
        <time>2014-03-10T09:13:02Z</time>
      </trkpt>
      <trkpt lat="42.81372" lon="-0.23524">
        <ele>2639.4809570312</ele>
        <time>2014-03-10T09:13:08Z</time>
      </trkpt>
      <trkpt lat="42.81379" lon="-0.23521">
        <ele>2639.2729492188</ele>
        <time>2014-03-10T09:13:17Z</time>
      </trkpt>
      <trkpt lat="42.81392" lon="-0.23517">
        <ele>2641.0329589844</ele>
        <time>2014-03-10T09:13:36Z</time>
      </trkpt>
      <trkpt lat="42.81399" lon="-0.23515">
        <ele>2643.125</ele>
        <time>2014-03-10T09:13:57Z</time>
      </trkpt>
      <trkpt lat="42.81396" lon="-0.23525">
        <ele>2645.0329589844</ele>
        <time>2014-03-10T09:14:11Z</time>
      </trkpt>
      <trkpt lat="42.8139" lon="-0.23536">
        <ele>2647.9150390625</ele>
        <time>2014-03-10T09:14:30Z</time>
      </trkpt>
      <trkpt lat="42.81385" lon="-0.2354">
        <ele>2650.9150390625</ele>
        <time>2014-03-10T09:14:44Z</time>
      </trkpt>
      <trkpt lat="42.81397" lon="-0.2354">
        <ele>2652.9108886719</ele>
        <time>2014-03-10T09:15:03Z</time>
      </trkpt>
      <trkpt lat="42.81404" lon="-0.2354">
        <ele>2654.1850585938</ele>
        <time>2014-03-10T09:15:13Z</time>
      </trkpt>
      <trkpt lat="42.81409" lon="-0.23545">
        <ele>2654.962890625</ele>
        <time>2014-03-10T09:15:30Z</time>
      </trkpt>
      <trkpt lat="42.814" lon="-0.23557">
        <ele>2657.2890625</ele>
        <time>2014-03-10T09:15:50Z</time>
      </trkpt>
      <trkpt lat="42.8139" lon="-0.23565">
        <ele>2660.7780761719</ele>
        <time>2014-03-10T09:16:12Z</time>
      </trkpt>
      <trkpt lat="42.81388" lon="-0.23567">
        <ele>2662.830078125</ele>
        <time>2014-03-10T09:16:23Z</time>
      </trkpt>
      <trkpt lat="42.81403" lon="-0.23567">
        <ele>2665.0100097656</ele>
        <time>2014-03-10T09:16:48Z</time>
      </trkpt>
      <trkpt lat="42.81417" lon="-0.2357">
        <ele>2667.462890625</ele>
        <time>2014-03-10T09:17:09Z</time>
      </trkpt>
      <trkpt lat="42.81427" lon="-0.23572">
        <ele>2670.5439453125</ele>
        <time>2014-03-10T09:17:27Z</time>
      </trkpt>
      <trkpt lat="42.81427" lon="-0.23572">
        <ele>2670.5480957031</ele>
        <time>2014-03-10T09:17:28Z</time>
      </trkpt>
      <trkpt lat="42.81437" lon="-0.23572">
        <ele>2673.0549316406</ele>
        <time>2014-03-10T09:17:49Z</time>
      </trkpt>
      <trkpt lat="42.81441" lon="-0.23577">
        <ele>2674.8610839844</ele>
        <time>2014-03-10T09:18:05Z</time>
      </trkpt>
      <trkpt lat="42.81444" lon="-0.23577">
        <ele>2676.5471191406</ele>
        <time>2014-03-10T09:18:14Z</time>
      </trkpt>
      <trkpt lat="42.81448" lon="-0.23589">
        <ele>2679.3930664062</ele>
        <time>2014-03-10T09:18:41Z</time>
      </trkpt>
      <trkpt lat="42.81459" lon="-0.23592">
        <ele>2681.5190429688</ele>
        <time>2014-03-10T09:18:59Z</time>
      </trkpt>
      <trkpt lat="42.81461" lon="-0.23604">
        <ele>2683.9799804688</ele>
        <time>2014-03-10T09:19:16Z</time>
      </trkpt>
      <trkpt lat="42.81468" lon="-0.23612">
        <ele>2687.2800292969</ele>
        <time>2014-03-10T09:19:39Z</time>
      </trkpt>
      <trkpt lat="42.81473" lon="-0.23621">
        <ele>2689.1770019531</ele>
        <time>2014-03-10T09:19:57Z</time>
      </trkpt>
      <trkpt lat="42.81474" lon="-0.23631">
        <ele>2691.0529785156</ele>
        <time>2014-03-10T09:20:14Z</time>
      </trkpt>
      <trkpt lat="42.81474" lon="-0.2363">
        <ele>2693.6508789062</ele>
        <time>2014-03-10T09:21:19Z</time>
      </trkpt>
      <trkpt lat="42.81474" lon="-0.2363">
        <ele>2690.5969238281</ele>
        <time>2014-03-10T09:21:20Z</time>
      </trkpt>
      <trkpt lat="42.81474" lon="-0.2363">
        <ele>2691.8989257812</ele>
        <time>2014-03-10T09:21:21Z</time>
      </trkpt>
      <trkpt lat="42.81474" lon="-0.2363">
        <ele>2690.5900878906</ele>
        <time>2014-03-10T09:21:24Z</time>
      </trkpt>
      <trkpt lat="42.81469" lon="-0.23643">
        <ele>2689.7329101562</ele>
        <time>2014-03-10T09:37:53Z</time>
      </trkpt>
      <trkpt lat="42.81486" lon="-0.23633">
        <ele>2692.8491210938</ele>
        <time>2014-03-10T09:38:06Z</time>
      </trkpt>
      <trkpt lat="42.81486" lon="-0.2364">
        <ele>2694.626953125</ele>
        <time>2014-03-10T09:38:25Z</time>
      </trkpt>
      <trkpt lat="42.81472" lon="-0.23653">
        <ele>2697.8479003906</ele>
        <time>2014-03-10T09:38:45Z</time>
      </trkpt>
      <trkpt lat="42.81459" lon="-0.23662">
        <ele>2700.66796875</ele>
        <time>2014-03-10T09:39:09Z</time>
      </trkpt>
      <trkpt lat="42.81448" lon="-0.23669">
        <ele>2703.9790039062</ele>
        <time>2014-03-10T09:39:34Z</time>
      </trkpt>
      <trkpt lat="42.81447" lon="-0.23677">
        <ele>2707.3229980469</ele>
        <time>2014-03-10T09:39:47Z</time>
      </trkpt>
      <trkpt lat="42.81452" lon="-0.23691">
        <ele>2710.6730957031</ele>
        <time>2014-03-10T09:40:08Z</time>
      </trkpt>
      <trkpt lat="42.81441" lon="-0.23697">
        <ele>2713.8520507812</ele>
        <time>2014-03-10T09:40:29Z</time>
      </trkpt>
      <trkpt lat="42.81439" lon="-0.23706">
        <ele>2716.1999511719</ele>
        <time>2014-03-10T09:40:44Z</time>
      </trkpt>
      <trkpt lat="42.81443" lon="-0.23718">
        <ele>2719.3940429688</ele>
        <time>2014-03-10T09:40:57Z</time>
      </trkpt>
      <trkpt lat="42.81452" lon="-0.23733">
        <ele>2722.4189453125</ele>
        <time>2014-03-10T09:41:22Z</time>
      </trkpt>
      <trkpt lat="42.81462" lon="-0.23748">
        <ele>2726.0639648438</ele>
        <time>2014-03-10T09:41:43Z</time>
      </trkpt>
      <trkpt lat="42.81466" lon="-0.23754">
        <ele>2728.1789550781</ele>
        <time>2014-03-10T09:41:53Z</time>
      </trkpt>
      <trkpt lat="42.81476" lon="-0.23753">
        <ele>2731.3190917969</ele>
        <time>2014-03-10T09:42:11Z</time>
      </trkpt>
      <trkpt lat="42.81484" lon="-0.23766">
        <ele>2733.9819335938</ele>
        <time>2014-03-10T09:42:32Z</time>
      </trkpt>
      <trkpt lat="42.81487" lon="-0.23778">
        <ele>2737.126953125</ele>
        <time>2014-03-10T09:42:48Z</time>
      </trkpt>
      <trkpt lat="42.81491" lon="-0.23778">
        <ele>2737.9951171875</ele>
        <time>2014-03-10T09:43:10Z</time>
      </trkpt>
      <trkpt lat="42.81494" lon="-0.23785">
        <ele>2739.9108886719</ele>
        <time>2014-03-10T09:43:23Z</time>
      </trkpt>
      <trkpt lat="42.81495" lon="-0.23788">
        <ele>2741.0920410156</ele>
        <time>2014-03-10T09:43:41Z</time>
      </trkpt>
      <trkpt lat="42.81495" lon="-0.23787">
        <ele>2742.205078125</ele>
        <time>2014-03-10T09:46:10Z</time>
      </trkpt>
      <trkpt lat="42.81495" lon="-0.23787">
        <ele>2740.2719726562</ele>
        <time>2014-03-10T09:46:13Z</time>
      </trkpt>
      <trkpt lat="42.815" lon="-0.23781">
        <ele>2743.0161132812</ele>
        <time>2014-03-10T09:46:52Z</time>
      </trkpt>
      <trkpt lat="42.81511" lon="-0.23777">
        <ele>2745.9819335938</ele>
        <time>2014-03-10T09:47:17Z</time>
      </trkpt>
      <trkpt lat="42.81514" lon="-0.23776">
        <ele>2747.8911132812</ele>
        <time>2014-03-10T09:47:38Z</time>
      </trkpt>
      <trkpt lat="42.81526" lon="-0.23768">
        <ele>2750.9560546875</ele>
        <time>2014-03-10T09:48:03Z</time>
      </trkpt>
      <trkpt lat="42.81529" lon="-0.23771">
        <ele>2751.8430175781</ele>
        <time>2014-03-10T09:48:24Z</time>
      </trkpt>
      <trkpt lat="42.81524" lon="-0.2378">
        <ele>2753.376953125</ele>
        <time>2014-03-10T09:48:39Z</time>
      </trkpt>
      <trkpt lat="42.81524" lon="-0.23792">
        <ele>2756.7241210938</ele>
        <time>2014-03-10T09:48:56Z</time>
      </trkpt>
      <trkpt lat="42.81527" lon="-0.23796">
        <ele>2759.9790039062</ele>
        <time>2014-03-10T09:49:10Z</time>
      </trkpt>
      <trkpt lat="42.81536" lon="-0.23788">
        <ele>2763.5739746094</ele>
        <time>2014-03-10T09:49:33Z</time>
      </trkpt>
      <trkpt lat="42.81552" lon="-0.2378">
        <ele>2766.5300292969</ele>
        <time>2014-03-10T09:50:01Z</time>
      </trkpt>
      <trkpt lat="42.8156" lon="-0.23779">
        <ele>2769.6340332031</ele>
        <time>2014-03-10T09:50:15Z</time>
      </trkpt>
      <trkpt lat="42.8157" lon="-0.23778">
        <ele>2772.8420410156</ele>
        <time>2014-03-10T09:50:36Z</time>
      </trkpt>
      <trkpt lat="42.81573" lon="-0.23777">
        <ele>2774.0390625</ele>
        <time>2014-03-10T09:50:42Z</time>
      </trkpt>
      <trkpt lat="42.81587" lon="-0.23779">
        <ele>2776.9089355469</ele>
        <time>2014-03-10T09:51:04Z</time>
      </trkpt>
      <trkpt lat="42.81595" lon="-0.23781">
        <ele>2780.1188964844</ele>
        <time>2014-03-10T09:51:25Z</time>
      </trkpt>
      <trkpt lat="42.81606" lon="-0.23784">
        <ele>2783.2299804688</ele>
        <time>2014-03-10T09:51:43Z</time>
      </trkpt>
      <trkpt lat="42.8161" lon="-0.23784">
        <ele>2784.8159179688</ele>
        <time>2014-03-10T09:51:51Z</time>
      </trkpt>
      <trkpt lat="42.8162" lon="-0.23789">
        <ele>2787.375</ele>
        <time>2014-03-10T09:52:15Z</time>
      </trkpt>
      <trkpt lat="42.81619" lon="-0.23797">
        <ele>2788.1689453125</ele>
        <time>2014-03-10T09:52:35Z</time>
      </trkpt>
      <trkpt lat="42.8162" lon="-0.23807">
        <ele>2791.2219238281</ele>
        <time>2014-03-10T09:52:50Z</time>
      </trkpt>
      <trkpt lat="42.81618" lon="-0.23819">
        <ele>2793.4790039062</ele>
        <time>2014-03-10T09:53:03Z</time>
      </trkpt>
      <trkpt lat="42.81626" lon="-0.23832">
        <ele>2796.9670410156</ele>
        <time>2014-03-10T09:53:27Z</time>
      </trkpt>
      <trkpt lat="42.81635" lon="-0.23829">
        <ele>2800.462890625</ele>
        <time>2014-03-10T09:53:45Z</time>
      </trkpt>
      <trkpt lat="42.81646" lon="-0.23825">
        <ele>2803.7619628906</ele>
        <time>2014-03-10T09:54:07Z</time>
      </trkpt>
      <trkpt lat="42.81654" lon="-0.23816">
        <ele>2805.9660644531</ele>
        <time>2014-03-10T09:54:29Z</time>
      </trkpt>
      <trkpt lat="42.81657" lon="-0.23811">
        <ele>2811.0490722656</ele>
        <time>2014-03-10T09:54:39Z</time>
      </trkpt>
      <trkpt lat="42.81657" lon="-0.23811">
        <ele>2811.0510253906</ele>
        <time>2014-03-10T09:54:40Z</time>
      </trkpt>
      <trkpt lat="42.8166" lon="-0.23806">
        <ele>2809.5209960938</ele>
        <time>2014-03-10T09:54:57Z</time>
      </trkpt>
      <trkpt lat="42.81664" lon="-0.23796">
        <ele>2813.0830078125</ele>
        <time>2014-03-10T09:55:20Z</time>
      </trkpt>
      <trkpt lat="42.81665" lon="-0.23795">
        <ele>2813.8579101562</ele>
        <time>2014-03-10T09:55:22Z</time>
      </trkpt>
      <trkpt lat="42.81675" lon="-0.2379">
        <ele>2813.6979980469</ele>
        <time>2014-03-10T09:55:40Z</time>
      </trkpt>
      <trkpt lat="42.81683" lon="-0.23787">
        <ele>2815.662109375</ele>
        <time>2014-03-10T09:56:03Z</time>
      </trkpt>
      <trkpt lat="42.81687" lon="-0.23787">
        <ele>2817.4650878906</ele>
        <time>2014-03-10T09:56:26Z</time>
      </trkpt>
      <trkpt lat="42.81691" lon="-0.23788">
        <ele>2820.9519042969</ele>
        <time>2014-03-10T09:57:28Z</time>
      </trkpt>
      <trkpt lat="42.81704" lon="-0.23792">
        <ele>2822.6259765625</ele>
        <time>2014-03-10T09:57:47Z</time>
      </trkpt>
      <trkpt lat="42.817" lon="-0.23809">
        <ele>2825.7380371094</ele>
        <time>2014-03-10T09:58:09Z</time>
      </trkpt>
      <trkpt lat="42.81708" lon="-0.23813">
        <ele>2828.4509277344</ele>
        <time>2014-03-10T09:58:26Z</time>
      </trkpt>
      <trkpt lat="42.81714" lon="-0.2382">
        <ele>2830.8979492188</ele>
        <time>2014-03-10T09:58:43Z</time>
      </trkpt>
      <trkpt lat="42.81713" lon="-0.23822">
        <ele>2832.5629882812</ele>
        <time>2014-03-10T09:58:46Z</time>
      </trkpt>
      <trkpt lat="42.81715" lon="-0.23844">
        <ele>2835.7790527344</ele>
        <time>2014-03-10T09:59:14Z</time>
      </trkpt>
      <trkpt lat="42.81719" lon="-0.23861">
        <ele>2839.08203125</ele>
        <time>2014-03-10T09:59:35Z</time>
      </trkpt>
      <trkpt lat="42.81723" lon="-0.23869">
        <ele>2840.58203125</ele>
        <time>2014-03-10T09:59:57Z</time>
      </trkpt>
      <trkpt lat="42.81733" lon="-0.23869">
        <ele>2843.6311035156</ele>
        <time>2014-03-10T10:04:04Z</time>
      </trkpt>
      <trkpt lat="42.81743" lon="-0.23882">
        <ele>2846.9990234375</ele>
        <time>2014-03-10T10:04:30Z</time>
      </trkpt>
      <trkpt lat="42.8175" lon="-0.2389">
        <ele>2846.4150390625</ele>
        <time>2014-03-10T10:04:48Z</time>
      </trkpt>
      <trkpt lat="42.81761" lon="-0.23897">
        <ele>2846.1879882812</ele>
        <time>2014-03-10T10:05:13Z</time>
      </trkpt>
      <trkpt lat="42.81774" lon="-0.23906">
        <ele>2848.375</ele>
        <time>2014-03-10T10:05:37Z</time>
      </trkpt>
      <trkpt lat="42.81786" lon="-0.23915">
        <ele>2850.5649414062</ele>
        <time>2014-03-10T10:05:59Z</time>
      </trkpt>
      <trkpt lat="42.81794" lon="-0.23923">
        <ele>2852.205078125</ele>
        <time>2014-03-10T10:06:17Z</time>
      </trkpt>
      <trkpt lat="42.81802" lon="-0.23938">
        <ele>2855.1020507812</ele>
        <time>2014-03-10T10:06:44Z</time>
      </trkpt>
      <trkpt lat="42.818" lon="-0.23959">
        <ele>2857.3491210938</ele>
        <time>2014-03-10T10:07:15Z</time>
      </trkpt>
      <trkpt lat="42.818" lon="-0.2396">
        <ele>2858.8310546875</ele>
        <time>2014-03-10T10:07:17Z</time>
      </trkpt>
      <trkpt lat="42.81798" lon="-0.23983">
        <ele>2861.4260253906</ele>
        <time>2014-03-10T10:07:49Z</time>
      </trkpt>
      <trkpt lat="42.81797" lon="-0.23992">
        <ele>2862.5239257812</ele>
        <time>2014-03-10T10:08:15Z</time>
      </trkpt>
      <trkpt lat="42.81797" lon="-0.23999">
        <ele>2864.4719238281</ele>
        <time>2014-03-10T10:08:34Z</time>
      </trkpt>
      <trkpt lat="42.81806" lon="-0.23992">
        <ele>2866.6499023438</ele>
        <time>2014-03-10T10:08:49Z</time>
      </trkpt>
      <trkpt lat="42.81815" lon="-0.23985">
        <ele>2867.4221191406</ele>
        <time>2014-03-10T10:09:07Z</time>
      </trkpt>
      <trkpt lat="42.81822" lon="-0.23984">
        <ele>2869.787109375</ele>
        <time>2014-03-10T10:09:25Z</time>
      </trkpt>
      <trkpt lat="42.81828" lon="-0.23984">
        <ele>2872.8540039062</ele>
        <time>2014-03-10T10:09:40Z</time>
      </trkpt>
      <trkpt lat="42.81833" lon="-0.23982">
        <ele>2874.8500976562</ele>
        <time>2014-03-10T10:09:55Z</time>
      </trkpt>
      <trkpt lat="42.81839" lon="-0.23984">
        <ele>2876.751953125</ele>
        <time>2014-03-10T10:10:17Z</time>
      </trkpt>
      <trkpt lat="42.81832" lon="-0.23996">
        <ele>2878.5769042969</ele>
        <time>2014-03-10T10:10:38Z</time>
      </trkpt>
      <trkpt lat="42.81828" lon="-0.24002">
        <ele>2880.2780761719</ele>
        <time>2014-03-10T10:10:57Z</time>
      </trkpt>
      <trkpt lat="42.81825" lon="-0.2401">
        <ele>2881.0791015625</ele>
        <time>2014-03-10T10:11:17Z</time>
      </trkpt>
      <trkpt lat="42.81838" lon="-0.24006">
        <ele>2883.5500488281</ele>
        <time>2014-03-10T10:11:37Z</time>
      </trkpt>
      <trkpt lat="42.81837" lon="-0.24011">
        <ele>2884.9890136719</ele>
        <time>2014-03-10T10:11:54Z</time>
      </trkpt>
      <trkpt lat="42.81832" lon="-0.2402">
        <ele>2887.3559570312</ele>
        <time>2014-03-10T10:12:12Z</time>
      </trkpt>
      <trkpt lat="42.81826" lon="-0.24033">
        <ele>2890.1159667969</ele>
        <time>2014-03-10T10:12:34Z</time>
      </trkpt>
      <trkpt lat="42.81827" lon="-0.24037">
        <ele>2890.7329101562</ele>
        <time>2014-03-10T10:12:54Z</time>
      </trkpt>
      <trkpt lat="42.81836" lon="-0.24032">
        <ele>2893.7619628906</ele>
        <time>2014-03-10T10:13:13Z</time>
      </trkpt>
      <trkpt lat="42.81843" lon="-0.24029">
        <ele>2896.7529296875</ele>
        <time>2014-03-10T10:13:28Z</time>
      </trkpt>
      <trkpt lat="42.81846" lon="-0.2403">
        <ele>2897.7509765625</ele>
        <time>2014-03-10T10:13:48Z</time>
      </trkpt>
      <trkpt lat="42.81838" lon="-0.24046">
        <ele>2900.9909667969</ele>
        <time>2014-03-10T10:14:11Z</time>
      </trkpt>
      <trkpt lat="42.81836" lon="-0.24058">
        <ele>2902.5239257812</ele>
        <time>2014-03-10T10:14:28Z</time>
      </trkpt>
      <trkpt lat="42.81841" lon="-0.24062">
        <ele>2904.2839355469</ele>
        <time>2014-03-10T10:14:48Z</time>
      </trkpt>
      <trkpt lat="42.81849" lon="-0.24055">
        <ele>2907.9020996094</ele>
        <time>2014-03-10T10:15:06Z</time>
      </trkpt>
      <trkpt lat="42.81861" lon="-0.2405">
        <ele>2911.2270507812</ele>
        <time>2014-03-10T10:15:32Z</time>
      </trkpt>
      <trkpt lat="42.81871" lon="-0.24048">
        <ele>2912.8449707031</ele>
        <time>2014-03-10T10:15:52Z</time>
      </trkpt>
      <trkpt lat="42.81877" lon="-0.24051">
        <ele>2916.0549316406</ele>
        <time>2014-03-10T10:16:04Z</time>
      </trkpt>
      <trkpt lat="42.81877" lon="-0.24052">
        <ele>2916.0581054688</ele>
        <time>2014-03-10T10:16:05Z</time>
      </trkpt>
      <trkpt lat="42.8187" lon="-0.24067">
        <ele>2918.083984375</ele>
        <time>2014-03-10T10:16:25Z</time>
      </trkpt>
      <trkpt lat="42.81864" lon="-0.24079">
        <ele>2917.7299804688</ele>
        <time>2014-03-10T10:16:49Z</time>
      </trkpt>
      <trkpt lat="42.81861" lon="-0.24073">
        <ele>2915.3449707031</ele>
        <time>2014-03-10T11:32:20Z</time>
      </trkpt>
      <trkpt lat="42.81861" lon="-0.24073">
        <ele>2915.3449707031</ele>
        <time>2014-03-10T11:32:21Z</time>
      </trkpt>
      <trkpt lat="42.81863" lon="-0.24069">
        <ele>2915.2609863281</ele>
        <time>2014-03-10T11:32:43Z</time>
      </trkpt>
      <trkpt lat="42.8186" lon="-0.24062">
        <ele>2913.8889160156</ele>
        <time>2014-03-10T11:32:46Z</time>
      </trkpt>
      <trkpt lat="42.81858" lon="-0.24055">
        <ele>2912.5891113281</ele>
        <time>2014-03-10T11:32:48Z</time>
      </trkpt>
      <trkpt lat="42.81852" lon="-0.24048">
        <ele>2908.0910644531</ele>
        <time>2014-03-10T11:32:51Z</time>
      </trkpt>
      <trkpt lat="42.81848" lon="-0.24049">
        <ele>2904.9660644531</ele>
        <time>2014-03-10T11:32:52Z</time>
      </trkpt>
      <trkpt lat="42.81846" lon="-0.24049">
        <ele>2904.9660644531</ele>
        <time>2014-03-10T11:32:53Z</time>
      </trkpt>
      <trkpt lat="42.81845" lon="-0.24042">
        <ele>2901.1689453125</ele>
        <time>2014-03-10T11:32:56Z</time>
      </trkpt>
      <trkpt lat="42.81836" lon="-0.24045">
        <ele>2895.875</ele>
        <time>2014-03-10T11:32:59Z</time>
      </trkpt>
      <trkpt lat="42.81833" lon="-0.24047">
        <ele>2895.876953125</ele>
        <time>2014-03-10T11:33:00Z</time>
      </trkpt>
      <trkpt lat="42.81827" lon="-0.2405">
        <ele>2894.5949707031</ele>
        <time>2014-03-10T11:33:05Z</time>
      </trkpt>
      <trkpt lat="42.81824" lon="-0.24046">
        <ele>2892.9409179688</ele>
        <time>2014-03-10T11:33:07Z</time>
      </trkpt>
      <trkpt lat="42.81825" lon="-0.24041">
        <ele>2889.8889160156</ele>
        <time>2014-03-10T11:33:08Z</time>
      </trkpt>
      <trkpt lat="42.81825" lon="-0.24037">
        <ele>2889.8898925781</ele>
        <time>2014-03-10T11:33:09Z</time>
      </trkpt>
      <trkpt lat="42.81821" lon="-0.24036">
        <ele>2887.0930175781</ele>
        <time>2014-03-10T11:33:11Z</time>
      </trkpt>
      <trkpt lat="42.81818" lon="-0.24037">
        <ele>2884.1608886719</ele>
        <time>2014-03-10T11:33:12Z</time>
      </trkpt>
      <trkpt lat="42.81818" lon="-0.24031">
        <ele>2881.669921875</ele>
        <time>2014-03-10T11:33:14Z</time>
      </trkpt>
      <trkpt lat="42.81815" lon="-0.24029">
        <ele>2879.6000976562</ele>
        <time>2014-03-10T11:33:16Z</time>
      </trkpt>
      <trkpt lat="42.81815" lon="-0.24022">
        <ele>2877.1179199219</ele>
        <time>2014-03-10T11:33:18Z</time>
      </trkpt>
      <trkpt lat="42.81816" lon="-0.24017">
        <ele>2873.8291015625</ele>
        <time>2014-03-10T11:33:19Z</time>
      </trkpt>
      <trkpt lat="42.81818" lon="-0.24007">
        <ele>2872.3811035156</ele>
        <time>2014-03-10T11:33:21Z</time>
      </trkpt>
      <trkpt lat="42.81823" lon="-0.23994">
        <ele>2869.9340820312</ele>
        <time>2014-03-10T11:33:24Z</time>
      </trkpt>
      <trkpt lat="42.81821" lon="-0.23985">
        <ele>2866.1069335938</ele>
        <time>2014-03-10T11:33:27Z</time>
      </trkpt>
      <trkpt lat="42.8182" lon="-0.23982">
        <ele>2866.1120605469</ele>
        <time>2014-03-10T11:33:28Z</time>
      </trkpt>
      <trkpt lat="42.81818" lon="-0.23977">
        <ele>2863.1240234375</ele>
        <time>2014-03-10T11:33:30Z</time>
      </trkpt>
      <trkpt lat="42.81813" lon="-0.23972">
        <ele>2860.9990234375</ele>
        <time>2014-03-10T11:33:32Z</time>
      </trkpt>
      <trkpt lat="42.81808" lon="-0.23969">
        <ele>2858.1940917969</ele>
        <time>2014-03-10T11:33:34Z</time>
      </trkpt>
      <trkpt lat="42.81803" lon="-0.23963">
        <ele>2852.1149902344</ele>
        <time>2014-03-10T11:33:36Z</time>
      </trkpt>
      <trkpt lat="42.818" lon="-0.23963">
        <ele>2852.123046875</ele>
        <time>2014-03-10T11:33:37Z</time>
      </trkpt>
      <trkpt lat="42.81797" lon="-0.23964">
        <ele>2849.7099609375</ele>
        <time>2014-03-10T11:33:39Z</time>
      </trkpt>
      <trkpt lat="42.81776" lon="-0.23988">
        <ele>2846.1149902344</ele>
        <time>2014-03-10T11:34:10Z</time>
      </trkpt>
      <trkpt lat="42.81764" lon="-0.24008">
        <ele>2844.0910644531</ele>
        <time>2014-03-10T11:34:14Z</time>
      </trkpt>
      <trkpt lat="42.8175" lon="-0.24022">
        <ele>2842.0200195312</ele>
        <time>2014-03-10T11:34:19Z</time>
      </trkpt>
      <trkpt lat="42.81745" lon="-0.2402">
        <ele>2839.74609375</ele>
        <time>2014-03-10T11:34:21Z</time>
      </trkpt>
      <trkpt lat="42.81741" lon="-0.24017">
        <ele>2836.7529296875</ele>
        <time>2014-03-10T11:34:23Z</time>
      </trkpt>
      <trkpt lat="42.81735" lon="-0.24013">
        <ele>2833.333984375</ele>
        <time>2014-03-10T11:34:25Z</time>
      </trkpt>
      <trkpt lat="42.81731" lon="-0.24011">
        <ele>2830.2810058594</ele>
        <time>2014-03-10T11:34:26Z</time>
      </trkpt>
      <trkpt lat="42.81729" lon="-0.2401">
        <ele>2827.375</ele>
        <time>2014-03-10T11:34:28Z</time>
      </trkpt>
      <trkpt lat="42.81725" lon="-0.24005">
        <ele>2826.5100097656</ele>
        <time>2014-03-10T11:34:47Z</time>
      </trkpt>
      <trkpt lat="42.81724" lon="-0.24005">
        <ele>2826.4079589844</ele>
        <time>2014-03-10T11:34:53Z</time>
      </trkpt>
      <trkpt lat="42.81718" lon="-0.24007">
        <ele>2824.4140625</ele>
        <time>2014-03-10T11:34:56Z</time>
      </trkpt>
      <trkpt lat="42.8171" lon="-0.24013">
        <ele>2823.1059570312</ele>
        <time>2014-03-10T11:34:58Z</time>
      </trkpt>
      <trkpt lat="42.81707" lon="-0.24016">
        <ele>2821.37109375</ele>
        <time>2014-03-10T11:34:59Z</time>
      </trkpt>
      <trkpt lat="42.81692" lon="-0.24025">
        <ele>2818.9951171875</ele>
        <time>2014-03-10T11:35:05Z</time>
      </trkpt>
      <trkpt lat="42.81688" lon="-0.24029">
        <ele>2813.8898925781</ele>
        <time>2014-03-10T11:35:07Z</time>
      </trkpt>
      <trkpt lat="42.81683" lon="-0.24024">
        <ele>2810.7399902344</ele>
        <time>2014-03-10T11:35:09Z</time>
      </trkpt>
      <trkpt lat="42.81675" lon="-0.24024">
        <ele>2806.3679199219</ele>
        <time>2014-03-10T11:35:11Z</time>
      </trkpt>
      <trkpt lat="42.81672" lon="-0.24024">
        <ele>2806.3679199219</ele>
        <time>2014-03-10T11:35:12Z</time>
      </trkpt>
      <trkpt lat="42.81669" lon="-0.2402">
        <ele>2803.2241210938</ele>
        <time>2014-03-10T11:35:13Z</time>
      </trkpt>
      <trkpt lat="42.81664" lon="-0.24014">
        <ele>2803.2329101562</ele>
        <time>2014-03-10T11:35:14Z</time>
      </trkpt>
      <trkpt lat="42.81662" lon="-0.24011">
        <ele>2801.4938964844</ele>
        <time>2014-03-10T11:35:16Z</time>
      </trkpt>
      <trkpt lat="42.81659" lon="-0.24009">
        <ele>2797.8439941406</ele>
        <time>2014-03-10T11:35:17Z</time>
      </trkpt>
      <trkpt lat="42.8165" lon="-0.24013">
        <ele>2795.3559570312</ele>
        <time>2014-03-10T11:35:19Z</time>
      </trkpt>
      <trkpt lat="42.81643" lon="-0.24021">
        <ele>2794.0529785156</ele>
        <time>2014-03-10T11:35:21Z</time>
      </trkpt>
      <trkpt lat="42.81638" lon="-0.24031">
        <ele>2791.9970703125</ele>
        <time>2014-03-10T11:35:23Z</time>
      </trkpt>
      <trkpt lat="42.81634" lon="-0.24036">
        <ele>2791.8439941406</ele>
        <time>2014-03-10T11:35:24Z</time>
      </trkpt>
      <trkpt lat="42.81628" lon="-0.24034">
        <ele>2789.0358886719</ele>
        <time>2014-03-10T11:35:26Z</time>
      </trkpt>
      <trkpt lat="42.81624" lon="-0.24024">
        <ele>2787.0458984375</ele>
        <time>2014-03-10T11:35:28Z</time>
      </trkpt>
      <trkpt lat="42.81625" lon="-0.24017">
        <ele>2787.8701171875</ele>
        <time>2014-03-10T11:35:35Z</time>
      </trkpt>
      <trkpt lat="42.81627" lon="-0.24016">
        <ele>2787.8959960938</ele>
        <time>2014-03-10T11:36:15Z</time>
      </trkpt>
      <trkpt lat="42.81626" lon="-0.24012">
        <ele>2788.0681152344</ele>
        <time>2014-03-10T11:37:03Z</time>
      </trkpt>
      <trkpt lat="42.8162" lon="-0.24013">
        <ele>2786.5439453125</ele>
        <time>2014-03-10T11:37:06Z</time>
      </trkpt>
      <trkpt lat="42.81616" lon="-0.24012">
        <ele>2784.6640625</ele>
        <time>2014-03-10T11:37:08Z</time>
      </trkpt>
      <trkpt lat="42.81612" lon="-0.24007">
        <ele>2783.083984375</ele>
        <time>2014-03-10T11:37:10Z</time>
      </trkpt>
      <trkpt lat="42.81605" lon="-0.24011">
        <ele>2781.8110351562</ele>
        <time>2014-03-10T11:37:12Z</time>
      </trkpt>
      <trkpt lat="42.81601" lon="-0.24019">
        <ele>2780.0009765625</ele>
        <time>2014-03-10T11:37:14Z</time>
      </trkpt>
      <trkpt lat="42.81593" lon="-0.24021">
        <ele>2777.4990234375</ele>
        <time>2014-03-10T11:37:17Z</time>
      </trkpt>
      <trkpt lat="42.8159" lon="-0.24015">
        <ele>2774.5600585938</ele>
        <time>2014-03-10T11:37:19Z</time>
      </trkpt>
      <trkpt lat="42.81585" lon="-0.24008">
        <ele>2774.0029296875</ele>
        <time>2014-03-10T11:37:21Z</time>
      </trkpt>
      <trkpt lat="42.81578" lon="-0.24008">
        <ele>2770.0859375</ele>
        <time>2014-03-10T11:37:23Z</time>
      </trkpt>
      <trkpt lat="42.81575" lon="-0.24004">
        <ele>2770.0910644531</ele>
        <time>2014-03-10T11:37:24Z</time>
      </trkpt>
      <trkpt lat="42.8157" lon="-0.24">
        <ele>2767.7109375</ele>
        <time>2014-03-10T11:37:25Z</time>
      </trkpt>
      <trkpt lat="42.81561" lon="-0.24004">
        <ele>2766.2119140625</ele>
        <time>2014-03-10T11:37:28Z</time>
      </trkpt>
      <trkpt lat="42.81554" lon="-0.24008">
        <ele>2761.16796875</ele>
        <time>2014-03-10T11:37:30Z</time>
      </trkpt>
      <trkpt lat="42.81551" lon="-0.2401">
        <ele>2761.1740722656</ele>
        <time>2014-03-10T11:37:31Z</time>
      </trkpt>
      <trkpt lat="42.81548" lon="-0.24007">
        <ele>2757.4299316406</ele>
        <time>2014-03-10T11:37:32Z</time>
      </trkpt>
      <trkpt lat="42.81545" lon="-0.24004">
        <ele>2757.4360351562</ele>
        <time>2014-03-10T11:37:33Z</time>
      </trkpt>
      <trkpt lat="42.81536" lon="-0.24008">
        <ele>2751.9541015625</ele>
        <time>2014-03-10T11:37:37Z</time>
      </trkpt>
      <trkpt lat="42.81535" lon="-0.24012">
        <ele>2751.9599609375</ele>
        <time>2014-03-10T11:37:38Z</time>
      </trkpt>
      <trkpt lat="42.81532" lon="-0.24013">
        <ele>2748.12109375</ele>
        <time>2014-03-10T11:37:39Z</time>
      </trkpt>
      <trkpt lat="42.81529" lon="-0.24008">
        <ele>2748.126953125</ele>
        <time>2014-03-10T11:37:40Z</time>
      </trkpt>
      <trkpt lat="42.81527" lon="-0.24003">
        <ele>2744.4089355469</ele>
        <time>2014-03-10T11:37:41Z</time>
      </trkpt>
      <trkpt lat="42.81526" lon="-0.23998">
        <ele>2744.4150390625</ele>
        <time>2014-03-10T11:37:42Z</time>
      </trkpt>
      <trkpt lat="42.81522" lon="-0.2399">
        <ele>2742.6040039062</ele>
        <time>2014-03-10T11:37:44Z</time>
      </trkpt>
      <trkpt lat="42.81513" lon="-0.23992">
        <ele>2740.4030761719</ele>
        <time>2014-03-10T11:37:47Z</time>
      </trkpt>
      <trkpt lat="42.81506" lon="-0.23993">
        <ele>2738.0910644531</ele>
        <time>2014-03-10T11:37:49Z</time>
      </trkpt>
      <trkpt lat="42.81501" lon="-0.23999">
        <ele>2733.6721191406</ele>
        <time>2014-03-10T11:37:51Z</time>
      </trkpt>
      <trkpt lat="42.815" lon="-0.24004">
        <ele>2733.6760253906</ele>
        <time>2014-03-10T11:37:52Z</time>
      </trkpt>
      <trkpt lat="42.81501" lon="-0.24014">
        <ele>2732.5581054688</ele>
        <time>2014-03-10T11:37:54Z</time>
      </trkpt>
      <trkpt lat="42.81506" lon="-0.24054">
        <ele>2728.6398925781</ele>
        <time>2014-03-10T11:38:06Z</time>
      </trkpt>
      <trkpt lat="42.81515" lon="-0.24076">
        <ele>2726.3220214844</ele>
        <time>2014-03-10T11:38:15Z</time>
      </trkpt>
      <trkpt lat="42.8152" lon="-0.24089">
        <ele>2724.9289550781</ele>
        <time>2014-03-10T11:38:20Z</time>
      </trkpt>
      <trkpt lat="42.81513" lon="-0.24093">
        <ele>2719.9279785156</ele>
        <time>2014-03-10T11:38:23Z</time>
      </trkpt>
      <trkpt lat="42.8151" lon="-0.24092">
        <ele>2719.9318847656</ele>
        <time>2014-03-10T11:38:24Z</time>
      </trkpt>
      <trkpt lat="42.81484" lon="-0.24074">
        <ele>2715.2241210938</ele>
        <time>2014-03-10T11:38:34Z</time>
      </trkpt>
      <trkpt lat="42.81479" lon="-0.24068">
        <ele>2714.3159179688</ele>
        <time>2014-03-10T11:38:36Z</time>
      </trkpt>
      <trkpt lat="42.81474" lon="-0.24061">
        <ele>2712.9799804688</ele>
        <time>2014-03-10T11:38:38Z</time>
      </trkpt>
      <trkpt lat="42.81459" lon="-0.2404">
        <ele>2709.9970703125</ele>
        <time>2014-03-10T11:38:45Z</time>
      </trkpt>
      <trkpt lat="42.81454" lon="-0.24033">
        <ele>2709.6750488281</ele>
        <time>2014-03-10T11:38:54Z</time>
      </trkpt>
      <trkpt lat="42.81454" lon="-0.24033">
        <ele>2709.6369628906</ele>
        <time>2014-03-10T11:39:01Z</time>
      </trkpt>
      <trkpt lat="42.81462" lon="-0.24068">
        <ele>2706.5280761719</ele>
        <time>2014-03-10T11:39:11Z</time>
      </trkpt>
      <trkpt lat="42.81463" lon="-0.24075">
        <ele>2706.3811035156</ele>
        <time>2014-03-10T11:39:13Z</time>
      </trkpt>
      <trkpt lat="42.81459" lon="-0.2408">
        <ele>2704.6240234375</ele>
        <time>2014-03-10T11:39:15Z</time>
      </trkpt>
      <trkpt lat="42.81455" lon="-0.24078">
        <ele>2699.6779785156</ele>
        <time>2014-03-10T11:39:16Z</time>
      </trkpt>
      <trkpt lat="42.81451" lon="-0.24075">
        <ele>2699.6799316406</ele>
        <time>2014-03-10T11:39:17Z</time>
      </trkpt>
      <trkpt lat="42.81445" lon="-0.24072">
        <ele>2697.29296875</ele>
        <time>2014-03-10T11:39:19Z</time>
      </trkpt>
      <trkpt lat="42.81443" lon="-0.2407">
        <ele>2697.2958984375</ele>
        <time>2014-03-10T11:39:20Z</time>
      </trkpt>
      <trkpt lat="42.81442" lon="-0.24083">
        <ele>2695.9680175781</ele>
        <time>2014-03-10T11:39:24Z</time>
      </trkpt>
      <trkpt lat="42.81443" lon="-0.24088">
        <ele>2694.5510253906</ele>
        <time>2014-03-10T11:39:26Z</time>
      </trkpt>
      <trkpt lat="42.81445" lon="-0.24093">
        <ele>2692.5209960938</ele>
        <time>2014-03-10T11:39:29Z</time>
      </trkpt>
      <trkpt lat="42.81443" lon="-0.24097">
        <ele>2691.8100585938</ele>
        <time>2014-03-10T11:39:32Z</time>
      </trkpt>
      <trkpt lat="42.81443" lon="-0.24112">
        <ele>2686.4299316406</ele>
        <time>2014-03-10T11:39:35Z</time>
      </trkpt>
      <trkpt lat="42.81444" lon="-0.24117">
        <ele>2686.4318847656</ele>
        <time>2014-03-10T11:39:36Z</time>
      </trkpt>
      <trkpt lat="42.81446" lon="-0.24125">
        <ele>2684.3579101562</ele>
        <time>2014-03-10T11:39:38Z</time>
      </trkpt>
      <trkpt lat="42.81447" lon="-0.24129">
        <ele>2681.7919921875</ele>
        <time>2014-03-10T11:39:39Z</time>
      </trkpt>
      <trkpt lat="42.81456" lon="-0.24143">
        <ele>2677.1499023438</ele>
        <time>2014-03-10T11:39:42Z</time>
      </trkpt>
      <trkpt lat="42.81459" lon="-0.24149">
        <ele>2677.1530761719</ele>
        <time>2014-03-10T11:39:43Z</time>
      </trkpt>
      <trkpt lat="42.81472" lon="-0.24161">
        <ele>2675.6931152344</ele>
        <time>2014-03-10T11:39:51Z</time>
      </trkpt>
      <trkpt lat="42.81473" lon="-0.24161">
        <ele>2675.5170898438</ele>
        <time>2014-03-10T11:40:09Z</time>
      </trkpt>
      <trkpt lat="42.81465" lon="-0.2417">
        <ele>2670.2099609375</ele>
        <time>2014-03-10T11:40:12Z</time>
      </trkpt>
      <trkpt lat="42.8146" lon="-0.24172">
        <ele>2670.212890625</ele>
        <time>2014-03-10T11:40:13Z</time>
      </trkpt>
      <trkpt lat="42.81437" lon="-0.24172">
        <ele>2669.2250976562</ele>
        <time>2014-03-10T11:40:23Z</time>
      </trkpt>
      <trkpt lat="42.81435" lon="-0.24167">
        <ele>2668.7770996094</ele>
        <time>2014-03-10T11:40:36Z</time>
      </trkpt>
      <trkpt lat="42.81435" lon="-0.24167">
        <ele>2668.5949707031</ele>
        <time>2014-03-10T11:41:24Z</time>
      </trkpt>
      <trkpt lat="42.81432" lon="-0.24165">
        <ele>2667.5161132812</ele>
        <time>2014-03-10T11:41:26Z</time>
      </trkpt>
      <trkpt lat="42.81432" lon="-0.24161">
        <ele>2667.7199707031</ele>
        <time>2014-03-10T11:41:36Z</time>
      </trkpt>
      <trkpt lat="42.81433" lon="-0.24157">
        <ele>2667.6489257812</ele>
        <time>2014-03-10T11:41:38Z</time>
      </trkpt>
      <trkpt lat="42.81434" lon="-0.24143">
        <ele>2663.0629882812</ele>
        <time>2014-03-10T11:41:41Z</time>
      </trkpt>
      <trkpt lat="42.81427" lon="-0.24138">
        <ele>2664.2060546875</ele>
        <time>2014-03-10T11:41:43Z</time>
      </trkpt>
      <trkpt lat="42.8142" lon="-0.24135">
        <ele>2661.4440917969</ele>
        <time>2014-03-10T11:41:45Z</time>
      </trkpt>
      <trkpt lat="42.81417" lon="-0.24133">
        <ele>2659.7319335938</ele>
        <time>2014-03-10T11:41:47Z</time>
      </trkpt>
      <trkpt lat="42.81408" lon="-0.24129">
        <ele>2657.6831054688</ele>
        <time>2014-03-10T11:42:25Z</time>
      </trkpt>
      <trkpt lat="42.81393" lon="-0.24122">
        <ele>2655.9379882812</ele>
        <time>2014-03-10T11:42:29Z</time>
      </trkpt>
      <trkpt lat="42.8138" lon="-0.24108">
        <ele>2651.4409179688</ele>
        <time>2014-03-10T11:42:35Z</time>
      </trkpt>
      <trkpt lat="42.81369" lon="-0.24112">
        <ele>2645.3889160156</ele>
        <time>2014-03-10T11:42:38Z</time>
      </trkpt>
      <trkpt lat="42.81365" lon="-0.24107">
        <ele>2645.3930664062</ele>
        <time>2014-03-10T11:42:39Z</time>
      </trkpt>
      <trkpt lat="42.81359" lon="-0.24097">
        <ele>2643.4250488281</ele>
        <time>2014-03-10T11:42:41Z</time>
      </trkpt>
      <trkpt lat="42.81354" lon="-0.24088">
        <ele>2641.9870605469</ele>
        <time>2014-03-10T11:42:43Z</time>
      </trkpt>
      <trkpt lat="42.8134" lon="-0.24073">
        <ele>2640.6420898438</ele>
        <time>2014-03-10T11:42:47Z</time>
      </trkpt>
      <trkpt lat="42.81331" lon="-0.24074">
        <ele>2637.4899902344</ele>
        <time>2014-03-10T11:42:49Z</time>
      </trkpt>
      <trkpt lat="42.81325" lon="-0.24071">
        <ele>2637.4938964844</ele>
        <time>2014-03-10T11:42:50Z</time>
      </trkpt>
      <trkpt lat="42.81318" lon="-0.24066">
        <ele>2631.4541015625</ele>
        <time>2014-03-10T11:42:51Z</time>
      </trkpt>
      <trkpt lat="42.81285" lon="-0.24067">
        <ele>2631.0568847656</ele>
        <time>2014-03-10T11:42:57Z</time>
      </trkpt>
      <trkpt lat="42.81272" lon="-0.24087">
        <ele>2632.3601074219</ele>
        <time>2014-03-10T11:43:02Z</time>
      </trkpt>
      <trkpt lat="42.81264" lon="-0.2409">
        <ele>2629.62109375</ele>
        <time>2014-03-10T11:43:06Z</time>
      </trkpt>
      <trkpt lat="42.81243" lon="-0.24085">
        <ele>2627.7580566406</ele>
        <time>2014-03-10T11:43:18Z</time>
      </trkpt>
      <trkpt lat="42.81244" lon="-0.24087">
        <ele>2627.5290527344</ele>
        <time>2014-03-10T11:44:34Z</time>
      </trkpt>
      <trkpt lat="42.81244" lon="-0.24088">
        <ele>2627.3601074219</ele>
        <time>2014-03-10T11:45:10Z</time>
      </trkpt>
      <trkpt lat="42.81239" lon="-0.24099">
        <ele>2625.1569824219</ele>
        <time>2014-03-10T11:45:16Z</time>
      </trkpt>
      <trkpt lat="42.8124" lon="-0.24112">
        <ele>2620.8940429688</ele>
        <time>2014-03-10T11:45:20Z</time>
      </trkpt>
      <trkpt lat="42.81238" lon="-0.24115">
        <ele>2620.8959960938</ele>
        <time>2014-03-10T11:45:21Z</time>
      </trkpt>
      <trkpt lat="42.81239" lon="-0.24124">
        <ele>2617.7160644531</ele>
        <time>2014-03-10T11:45:24Z</time>
      </trkpt>
      <trkpt lat="42.81237" lon="-0.24128">
        <ele>2617.7180175781</ele>
        <time>2014-03-10T11:45:25Z</time>
      </trkpt>
      <trkpt lat="42.81237" lon="-0.24139">
        <ele>2613.7329101562</ele>
        <time>2014-03-10T11:45:28Z</time>
      </trkpt>
      <trkpt lat="42.81236" lon="-0.24146">
        <ele>2611.7758789062</ele>
        <time>2014-03-10T11:45:30Z</time>
      </trkpt>
      <trkpt lat="42.81236" lon="-0.24152">
        <ele>2609.3999023438</ele>
        <time>2014-03-10T11:45:32Z</time>
      </trkpt>
      <trkpt lat="42.81233" lon="-0.2416">
        <ele>2602.6779785156</ele>
        <time>2014-03-10T11:45:34Z</time>
      </trkpt>
      <trkpt lat="42.81231" lon="-0.24163">
        <ele>2602.6779785156</ele>
        <time>2014-03-10T11:45:35Z</time>
      </trkpt>
      <trkpt lat="42.81232" lon="-0.2417">
        <ele>2600.0620117188</ele>
        <time>2014-03-10T11:45:37Z</time>
      </trkpt>
      <trkpt lat="42.81236" lon="-0.24174">
        <ele>2595.9389648438</ele>
        <time>2014-03-10T11:45:38Z</time>
      </trkpt>
      <trkpt lat="42.81236" lon="-0.24179">
        <ele>2595.9460449219</ele>
        <time>2014-03-10T11:45:39Z</time>
      </trkpt>
      <trkpt lat="42.81231" lon="-0.24183">
        <ele>2591.1440429688</ele>
        <time>2014-03-10T11:45:41Z</time>
      </trkpt>
      <trkpt lat="42.81229" lon="-0.24186">
        <ele>2591.1530761719</ele>
        <time>2014-03-10T11:45:42Z</time>
      </trkpt>
      <trkpt lat="42.81229" lon="-0.2419">
        <ele>2588.3601074219</ele>
        <time>2014-03-10T11:45:43Z</time>
      </trkpt>
      <trkpt lat="42.81229" lon="-0.24198">
        <ele>2585.9260253906</ele>
        <time>2014-03-10T11:45:45Z</time>
      </trkpt>
      <trkpt lat="42.81215" lon="-0.24206">
        <ele>2580.4208984375</ele>
        <time>2014-03-10T11:45:48Z</time>
      </trkpt>
      <trkpt lat="42.81205" lon="-0.24215">
        <ele>2578.5170898438</ele>
        <time>2014-03-10T11:45:51Z</time>
      </trkpt>
      <trkpt lat="42.81187" lon="-0.24229">
        <ele>2574.8200683594</ele>
        <time>2014-03-10T11:45:56Z</time>
      </trkpt>
      <trkpt lat="42.81178" lon="-0.24237">
        <ele>2572.8491210938</ele>
        <time>2014-03-10T11:45:58Z</time>
      </trkpt>
      <trkpt lat="42.81171" lon="-0.24247">
        <ele>2571.0319824219</ele>
        <time>2014-03-10T11:46:00Z</time>
      </trkpt>
      <trkpt lat="42.81167" lon="-0.24254">
        <ele>2571.2260742188</ele>
        <time>2014-03-10T11:46:07Z</time>
      </trkpt>
      <trkpt lat="42.81168" lon="-0.24255">
        <ele>2571.0209960938</ele>
        <time>2014-03-10T11:46:10Z</time>
      </trkpt>
      <trkpt lat="42.81164" lon="-0.24263">
        <ele>2569.0891113281</ele>
        <time>2014-03-10T11:46:14Z</time>
      </trkpt>
      <trkpt lat="42.81162" lon="-0.24266">
        <ele>2566.95703125</ele>
        <time>2014-03-10T11:46:16Z</time>
      </trkpt>
      <trkpt lat="42.81165" lon="-0.24269">
        <ele>2562.376953125</ele>
        <time>2014-03-10T11:46:18Z</time>
      </trkpt>
      <trkpt lat="42.81167" lon="-0.24275">
        <ele>2560.9609375</ele>
        <time>2014-03-10T11:46:21Z</time>
      </trkpt>
      <trkpt lat="42.81163" lon="-0.24282">
        <ele>2556.5239257812</ele>
        <time>2014-03-10T11:46:22Z</time>
      </trkpt>
      <trkpt lat="42.81159" lon="-0.2429">
        <ele>2556.5239257812</ele>
        <time>2014-03-10T11:46:23Z</time>
      </trkpt>
      <trkpt lat="42.8115" lon="-0.24306">
        <ele>2552.1989746094</ele>
        <time>2014-03-10T11:46:25Z</time>
      </trkpt>
      <trkpt lat="42.81145" lon="-0.24315">
        <ele>2552.2109375</ele>
        <time>2014-03-10T11:46:26Z</time>
      </trkpt>
      <trkpt lat="42.81141" lon="-0.24324">
        <ele>2550.8879394531</ele>
        <time>2014-03-10T11:46:27Z</time>
      </trkpt>
      <trkpt lat="42.81129" lon="-0.24352">
        <ele>2548.3979492188</ele>
        <time>2014-03-10T11:46:30Z</time>
      </trkpt>
      <trkpt lat="42.81126" lon="-0.24362">
        <ele>2546.6220703125</ele>
        <time>2014-03-10T11:46:31Z</time>
      </trkpt>
      <trkpt lat="42.81123" lon="-0.24403">
        <ele>2544.2661132812</ele>
        <time>2014-03-10T11:46:35Z</time>
      </trkpt>
      <trkpt lat="42.81126" lon="-0.24423">
        <ele>2542.6721191406</ele>
        <time>2014-03-10T11:46:37Z</time>
      </trkpt>
      <trkpt lat="42.81132" lon="-0.24443">
        <ele>2540.4670410156</ele>
        <time>2014-03-10T11:46:39Z</time>
      </trkpt>
      <trkpt lat="42.81136" lon="-0.24453">
        <ele>2538.876953125</ele>
        <time>2014-03-10T11:46:40Z</time>
      </trkpt>
      <trkpt lat="42.81143" lon="-0.2447">
        <ele>2537.623046875</ele>
        <time>2014-03-10T11:46:42Z</time>
      </trkpt>
      <trkpt lat="42.81149" lon="-0.24487">
        <ele>2536.2958984375</ele>
        <time>2014-03-10T11:46:44Z</time>
      </trkpt>
      <trkpt lat="42.81154" lon="-0.24505">
        <ele>2534.8110351562</ele>
        <time>2014-03-10T11:46:46Z</time>
      </trkpt>
      <trkpt lat="42.81158" lon="-0.24521">
        <ele>2533.04296875</ele>
        <time>2014-03-10T11:46:48Z</time>
      </trkpt>
      <trkpt lat="42.81163" lon="-0.24536">
        <ele>2533.6049804688</ele>
        <time>2014-03-10T11:46:55Z</time>
      </trkpt>
      <trkpt lat="42.81163" lon="-0.24536">
        <ele>2534.2370605469</ele>
        <time>2014-03-10T11:47:12Z</time>
      </trkpt>
      <trkpt lat="42.81167" lon="-0.24539">
        <ele>2529.8259277344</ele>
        <time>2014-03-10T11:47:15Z</time>
      </trkpt>
      <trkpt lat="42.81169" lon="-0.24537">
        <ele>2530.0161132812</ele>
        <time>2014-03-10T11:47:37Z</time>
      </trkpt>
      <trkpt lat="42.8117" lon="-0.24534">
        <ele>2530.2270507812</ele>
        <time>2014-03-10T11:48:09Z</time>
      </trkpt>
      <trkpt lat="42.81174" lon="-0.24541">
        <ele>2530.2319335938</ele>
        <time>2014-03-10T11:48:13Z</time>
      </trkpt>
      <trkpt lat="42.81173" lon="-0.24545">
        <ele>2532.0109863281</ele>
        <time>2014-03-10T11:48:31Z</time>
      </trkpt>
      <trkpt lat="42.81173" lon="-0.24545">
        <ele>2530.3530273438</ele>
        <time>2014-03-10T11:48:38Z</time>
      </trkpt>
      <trkpt lat="42.81171" lon="-0.24556">
        <ele>2530.1730957031</ele>
        <time>2014-03-10T11:48:58Z</time>
      </trkpt>
      <trkpt lat="42.81168" lon="-0.24567">
        <ele>2528.3850097656</ele>
        <time>2014-03-10T11:49:14Z</time>
      </trkpt>
      <trkpt lat="42.81158" lon="-0.24585">
        <ele>2525.9450683594</ele>
        <time>2014-03-10T11:49:22Z</time>
      </trkpt>
      <trkpt lat="42.81157" lon="-0.24589">
        <ele>2524.462890625</ele>
        <time>2014-03-10T11:49:24Z</time>
      </trkpt>
      <trkpt lat="42.81157" lon="-0.2459">
        <ele>2523.8798828125</ele>
        <time>2014-03-10T11:49:25Z</time>
      </trkpt>
      <trkpt lat="42.81159" lon="-0.24598">
        <ele>2522.458984375</ele>
        <time>2014-03-10T11:49:27Z</time>
      </trkpt>
      <trkpt lat="42.81165" lon="-0.24609">
        <ele>2518.9790039062</ele>
        <time>2014-03-10T11:49:29Z</time>
      </trkpt>
      <trkpt lat="42.8117" lon="-0.24618">
        <ele>2517.6589355469</ele>
        <time>2014-03-10T11:49:31Z</time>
      </trkpt>
      <trkpt lat="42.81172" lon="-0.24621">
        <ele>2517.5778808594</ele>
        <time>2014-03-10T11:49:32Z</time>
      </trkpt>
      <trkpt lat="42.81168" lon="-0.24624">
        <ele>2514.4780273438</ele>
        <time>2014-03-10T11:49:34Z</time>
      </trkpt>
      <trkpt lat="42.81162" lon="-0.24626">
        <ele>2514.4780273438</ele>
        <time>2014-03-10T11:49:35Z</time>
      </trkpt>
      <trkpt lat="42.81157" lon="-0.2463">
        <ele>2511.0759277344</ele>
        <time>2014-03-10T11:49:36Z</time>
      </trkpt>
      <trkpt lat="42.81154" lon="-0.24633">
        <ele>2510.4599609375</ele>
        <time>2014-03-10T11:49:37Z</time>
      </trkpt>
      <trkpt lat="42.81154" lon="-0.24642">
        <ele>2507.2790527344</ele>
        <time>2014-03-10T11:49:39Z</time>
      </trkpt>
      <trkpt lat="42.81156" lon="-0.24654">
        <ele>2503.75390625</ele>
        <time>2014-03-10T11:49:41Z</time>
      </trkpt>
      <trkpt lat="42.81157" lon="-0.24658">
        <ele>2503.7590332031</ele>
        <time>2014-03-10T11:49:42Z</time>
      </trkpt>
      <trkpt lat="42.81154" lon="-0.24664">
        <ele>2500.6899414062</ele>
        <time>2014-03-10T11:49:43Z</time>
      </trkpt>
      <trkpt lat="42.81153" lon="-0.24674">
        <ele>2498.412109375</ele>
        <time>2014-03-10T11:49:45Z</time>
      </trkpt>
      <trkpt lat="42.81152" lon="-0.24678">
        <ele>2495.2729492188</ele>
        <time>2014-03-10T11:49:46Z</time>
      </trkpt>
      <trkpt lat="42.8115" lon="-0.24681">
        <ele>2495.2770996094</ele>
        <time>2014-03-10T11:49:47Z</time>
      </trkpt>
      <trkpt lat="42.81145" lon="-0.24688">
        <ele>2492.5629882812</ele>
        <time>2014-03-10T11:49:49Z</time>
      </trkpt>
      <trkpt lat="42.81144" lon="-0.24701">
        <ele>2488.2470703125</ele>
        <time>2014-03-10T11:49:52Z</time>
      </trkpt>
      <trkpt lat="42.81142" lon="-0.24704">
        <ele>2485.0070800781</ele>
        <time>2014-03-10T11:49:53Z</time>
      </trkpt>
      <trkpt lat="42.81141" lon="-0.24706">
        <ele>2483.6599121094</ele>
        <time>2014-03-10T11:50:13Z</time>
      </trkpt>
      <trkpt lat="42.81135" lon="-0.24715">
        <ele>2482.0529785156</ele>
        <time>2014-03-10T11:50:24Z</time>
      </trkpt>
      <trkpt lat="42.8113" lon="-0.24723">
        <ele>2479.8610839844</ele>
        <time>2014-03-10T11:50:26Z</time>
      </trkpt>
      <trkpt lat="42.81122" lon="-0.24735">
        <ele>2477.2270507812</ele>
        <time>2014-03-10T11:50:29Z</time>
      </trkpt>
      <trkpt lat="42.81121" lon="-0.24739">
        <ele>2476.333984375</ele>
        <time>2014-03-10T11:50:31Z</time>
      </trkpt>
      <trkpt lat="42.81124" lon="-0.24744">
        <ele>2474.2309570312</ele>
        <time>2014-03-10T11:50:33Z</time>
      </trkpt>
      <trkpt lat="42.81124" lon="-0.24746">
        <ele>2471.1040039062</ele>
        <time>2014-03-10T11:50:34Z</time>
      </trkpt>
      <trkpt lat="42.81124" lon="-0.2475">
        <ele>2469.2309570312</ele>
        <time>2014-03-10T11:50:35Z</time>
      </trkpt>
      <trkpt lat="42.81126" lon="-0.24762">
        <ele>2466.1689453125</ele>
        <time>2014-03-10T11:50:38Z</time>
      </trkpt>
      <trkpt lat="42.81124" lon="-0.24768">
        <ele>2462.7758789062</ele>
        <time>2014-03-10T11:50:39Z</time>
      </trkpt>
      <trkpt lat="42.81121" lon="-0.24774">
        <ele>2462.7758789062</ele>
        <time>2014-03-10T11:50:40Z</time>
      </trkpt>
      <trkpt lat="42.81117" lon="-0.24781">
        <ele>2459.4050292969</ele>
        <time>2014-03-10T11:50:41Z</time>
      </trkpt>
      <trkpt lat="42.81112" lon="-0.24788">
        <ele>2455.5739746094</ele>
        <time>2014-03-10T11:50:42Z</time>
      </trkpt>
      <trkpt lat="42.81099" lon="-0.24812">
        <ele>2454.2770996094</ele>
        <time>2014-03-10T11:50:45Z</time>
      </trkpt>
      <trkpt lat="42.81094" lon="-0.24824">
        <ele>2454.4389648438</ele>
        <time>2014-03-10T11:50:47Z</time>
      </trkpt>
      <trkpt lat="42.81081" lon="-0.2484">
        <ele>2452.0471191406</ele>
        <time>2014-03-10T11:50:50Z</time>
      </trkpt>
      <trkpt lat="42.81072" lon="-0.24851">
        <ele>2450.6298828125</ele>
        <time>2014-03-10T11:50:57Z</time>
      </trkpt>
      <trkpt lat="42.81071" lon="-0.2485">
        <ele>2450.7470703125</ele>
        <time>2014-03-10T11:51:01Z</time>
      </trkpt>
      <trkpt lat="42.81083" lon="-0.24853">
        <ele>2444.2399902344</ele>
        <time>2014-03-10T11:51:05Z</time>
      </trkpt>
      <trkpt lat="42.81084" lon="-0.24856">
        <ele>2444.2399902344</ele>
        <time>2014-03-10T11:51:06Z</time>
      </trkpt>
      <trkpt lat="42.81085" lon="-0.2486">
        <ele>2440.1789550781</ele>
        <time>2014-03-10T11:51:07Z</time>
      </trkpt>
      <trkpt lat="42.81086" lon="-0.24863">
        <ele>2440.1831054688</ele>
        <time>2014-03-10T11:51:08Z</time>
      </trkpt>
      <trkpt lat="42.81089" lon="-0.24863">
        <ele>2436.8459472656</ele>
        <time>2014-03-10T11:51:09Z</time>
      </trkpt>
      <trkpt lat="42.81091" lon="-0.24865">
        <ele>2436.8520507812</ele>
        <time>2014-03-10T11:51:10Z</time>
      </trkpt>
      <trkpt lat="42.81099" lon="-0.24871">
        <ele>2431.6760253906</ele>
        <time>2014-03-10T11:51:12Z</time>
      </trkpt>
      <trkpt lat="42.811" lon="-0.24874">
        <ele>2431.6831054688</ele>
        <time>2014-03-10T11:51:13Z</time>
      </trkpt>
      <trkpt lat="42.81107" lon="-0.24879">
        <ele>2425.0959472656</ele>
        <time>2014-03-10T11:51:16Z</time>
      </trkpt>
      <trkpt lat="42.81108" lon="-0.24881">
        <ele>2425.1049804688</ele>
        <time>2014-03-10T11:51:17Z</time>
      </trkpt>
      <trkpt lat="42.81107" lon="-0.24886">
        <ele>2422.955078125</ele>
        <time>2014-03-10T11:51:18Z</time>
      </trkpt>
      <trkpt lat="42.81108" lon="-0.24895">
        <ele>2420.3911132812</ele>
        <time>2014-03-10T11:51:20Z</time>
      </trkpt>
      <trkpt lat="42.81107" lon="-0.24901">
        <ele>2417.7241210938</ele>
        <time>2014-03-10T11:51:21Z</time>
      </trkpt>
      <trkpt lat="42.81109" lon="-0.2492">
        <ele>2415.1999511719</ele>
        <time>2014-03-10T11:51:24Z</time>
      </trkpt>
      <trkpt lat="42.81107" lon="-0.24927">
        <ele>2412.1079101562</ele>
        <time>2014-03-10T11:51:25Z</time>
      </trkpt>
      <trkpt lat="42.81103" lon="-0.24933">
        <ele>2408.66796875</ele>
        <time>2014-03-10T11:51:26Z</time>
      </trkpt>
      <trkpt lat="42.81098" lon="-0.24938">
        <ele>2408.6779785156</ele>
        <time>2014-03-10T11:51:27Z</time>
      </trkpt>
      <trkpt lat="42.811" lon="-0.24955">
        <ele>2402.8190917969</ele>
        <time>2014-03-10T11:51:32Z</time>
      </trkpt>
      <trkpt lat="42.8111" lon="-0.24956">
        <ele>2400.0739746094</ele>
        <time>2014-03-10T11:51:34Z</time>
      </trkpt>
      <trkpt lat="42.81113" lon="-0.24956">
        <ele>2401.8759765625</ele>
        <time>2014-03-10T11:51:36Z</time>
      </trkpt>
      <trkpt lat="42.81115" lon="-0.24956">
        <ele>2402.0180664062</ele>
        <time>2014-03-10T11:51:43Z</time>
      </trkpt>
      <trkpt lat="42.81108" lon="-0.24967">
        <ele>2400.1640625</ele>
        <time>2014-03-10T11:51:47Z</time>
      </trkpt>
      <trkpt lat="42.81103" lon="-0.24972">
        <ele>2398.2990722656</ele>
        <time>2014-03-10T11:51:48Z</time>
      </trkpt>
      <trkpt lat="42.81093" lon="-0.24984">
        <ele>2395.2080078125</ele>
        <time>2014-03-10T11:51:50Z</time>
      </trkpt>
      <trkpt lat="42.8109" lon="-0.2499">
        <ele>2394.7209472656</ele>
        <time>2014-03-10T11:51:51Z</time>
      </trkpt>
      <trkpt lat="42.81102" lon="-0.24993">
        <ele>2393.1560058594</ele>
        <time>2014-03-10T11:51:54Z</time>
      </trkpt>
      <trkpt lat="42.81114" lon="-0.24995">
        <ele>2393.4050292969</ele>
        <time>2014-03-10T11:52:00Z</time>
      </trkpt>
      <trkpt lat="42.81115" lon="-0.24995">
        <ele>2394.4108886719</ele>
        <time>2014-03-10T11:53:22Z</time>
      </trkpt>
      <trkpt lat="42.81115" lon="-0.24995">
        <ele>2395.99609375</ele>
        <time>2014-03-10T11:54:52Z</time>
      </trkpt>
      <trkpt lat="42.81115" lon="-0.24996">
        <ele>2395.4399414062</ele>
        <time>2014-03-10T11:55:13Z</time>
      </trkpt>
      <trkpt lat="42.81108" lon="-0.2501">
        <ele>2393.8259277344</ele>
        <time>2014-03-10T11:55:16Z</time>
      </trkpt>
      <trkpt lat="42.81102" lon="-0.25018">
        <ele>2388.8610839844</ele>
        <time>2014-03-10T11:55:17Z</time>
      </trkpt>
      <trkpt lat="42.81097" lon="-0.25027">
        <ele>2388.8659667969</ele>
        <time>2014-03-10T11:55:18Z</time>
      </trkpt>
      <trkpt lat="42.81091" lon="-0.25037">
        <ele>2383.7800292969</ele>
        <time>2014-03-10T11:55:19Z</time>
      </trkpt>
      <trkpt lat="42.81087" lon="-0.25045">
        <ele>2383.787109375</ele>
        <time>2014-03-10T11:55:20Z</time>
      </trkpt>
      <trkpt lat="42.81079" lon="-0.25058">
        <ele>2380.37890625</ele>
        <time>2014-03-10T11:55:22Z</time>
      </trkpt>
      <trkpt lat="42.81076" lon="-0.25064">
        <ele>2380.3879394531</ele>
        <time>2014-03-10T11:55:23Z</time>
      </trkpt>
      <trkpt lat="42.81071" lon="-0.25077">
        <ele>2378.8630371094</ele>
        <time>2014-03-10T11:55:25Z</time>
      </trkpt>
      <trkpt lat="42.81073" lon="-0.25086">
        <ele>2377.0119628906</ele>
        <time>2014-03-10T11:55:27Z</time>
      </trkpt>
      <trkpt lat="42.81076" lon="-0.25089">
        <ele>2373.50390625</ele>
        <time>2014-03-10T11:55:28Z</time>
      </trkpt>
      <trkpt lat="42.81084" lon="-0.25096">
        <ele>2370.5581054688</ele>
        <time>2014-03-10T11:55:30Z</time>
      </trkpt>
      <trkpt lat="42.81088" lon="-0.25097">
        <ele>2368.4289550781</ele>
        <time>2014-03-10T11:55:31Z</time>
      </trkpt>
      <trkpt lat="42.81094" lon="-0.25109">
        <ele>2364.5070800781</ele>
        <time>2014-03-10T11:55:33Z</time>
      </trkpt>
      <trkpt lat="42.81094" lon="-0.25119">
        <ele>2364.5070800781</ele>
        <time>2014-03-10T11:55:34Z</time>
      </trkpt>
      <trkpt lat="42.81092" lon="-0.25129">
        <ele>2360.0649414062</ele>
        <time>2014-03-10T11:55:35Z</time>
      </trkpt>
      <trkpt lat="42.81089" lon="-0.25138">
        <ele>2358.6120605469</ele>
        <time>2014-03-10T11:55:36Z</time>
      </trkpt>
      <trkpt lat="42.81086" lon="-0.2516">
        <ele>2356.6860351562</ele>
        <time>2014-03-10T11:55:39Z</time>
      </trkpt>
      <trkpt lat="42.81094" lon="-0.25174">
        <ele>2357.1499023438</ele>
        <time>2014-03-10T11:55:42Z</time>
      </trkpt>
      <trkpt lat="42.81105" lon="-0.25199">
        <ele>2353.0520019531</ele>
        <time>2014-03-10T11:55:47Z</time>
      </trkpt>
      <trkpt lat="42.81107" lon="-0.25208">
        <ele>2353.0610351562</ele>
        <time>2014-03-10T11:55:48Z</time>
      </trkpt>
      <trkpt lat="42.8111" lon="-0.25233">
        <ele>2347.6350097656</ele>
        <time>2014-03-10T11:55:51Z</time>
      </trkpt>
      <trkpt lat="42.81121" lon="-0.25251">
        <ele>2343.9599609375</ele>
        <time>2014-03-10T11:55:54Z</time>
      </trkpt>
      <trkpt lat="42.81126" lon="-0.25259">
        <ele>2343.9699707031</ele>
        <time>2014-03-10T11:55:55Z</time>
      </trkpt>
      <trkpt lat="42.81137" lon="-0.25289">
        <ele>2340.7570800781</ele>
        <time>2014-03-10T11:56:01Z</time>
      </trkpt>
      <trkpt lat="42.8113" lon="-0.25292">
        <ele>2339.3588867188</ele>
        <time>2014-03-10T11:56:04Z</time>
      </trkpt>
      <trkpt lat="42.81126" lon="-0.25291">
        <ele>2335.5458984375</ele>
        <time>2014-03-10T11:56:05Z</time>
      </trkpt>
      <trkpt lat="42.8112" lon="-0.253">
        <ele>2333.8630371094</ele>
        <time>2014-03-10T11:56:07Z</time>
      </trkpt>
      <trkpt lat="42.81118" lon="-0.25306">
        <ele>2333.8630371094</ele>
        <time>2014-03-10T11:56:08Z</time>
      </trkpt>
      <trkpt lat="42.81113" lon="-0.2533">
        <ele>2331.8310546875</ele>
        <time>2014-03-10T11:56:11Z</time>
      </trkpt>
      <trkpt lat="42.81109" lon="-0.2535">
        <ele>2328.7019042969</ele>
        <time>2014-03-10T11:56:15Z</time>
      </trkpt>
      <trkpt lat="42.8111" lon="-0.25355">
        <ele>2326.9799804688</ele>
        <time>2014-03-10T11:56:17Z</time>
      </trkpt>
      <trkpt lat="42.8112" lon="-0.2536">
        <ele>2323.1799316406</ele>
        <time>2014-03-10T11:56:20Z</time>
      </trkpt>
      <trkpt lat="42.81123" lon="-0.25363">
        <ele>2323.1799316406</ele>
        <time>2014-03-10T11:56:21Z</time>
      </trkpt>
      <trkpt lat="42.81129" lon="-0.25372">
        <ele>2322.1040039062</ele>
        <time>2014-03-10T11:56:23Z</time>
      </trkpt>
      <trkpt lat="42.8113" lon="-0.25388">
        <ele>2319.9060058594</ele>
        <time>2014-03-10T11:56:25Z</time>
      </trkpt>
      <trkpt lat="42.81127" lon="-0.25395">
        <ele>2316.0830078125</ele>
        <time>2014-03-10T11:56:26Z</time>
      </trkpt>
      <trkpt lat="42.81123" lon="-0.25406">
        <ele>2315.1179199219</ele>
        <time>2014-03-10T11:56:28Z</time>
      </trkpt>
      <trkpt lat="42.81122" lon="-0.2541">
        <ele>2316.4580078125</ele>
        <time>2014-03-10T11:56:30Z</time>
      </trkpt>
      <trkpt lat="42.81122" lon="-0.25411">
        <ele>2316.2990722656</ele>
        <time>2014-03-10T11:56:39Z</time>
      </trkpt>
      <trkpt lat="42.81131" lon="-0.2543">
        <ele>2309.5319824219</ele>
        <time>2014-03-10T11:56:43Z</time>
      </trkpt>
      <trkpt lat="42.81135" lon="-0.25439">
        <ele>2309.5319824219</ele>
        <time>2014-03-10T11:56:44Z</time>
      </trkpt>
      <trkpt lat="42.81145" lon="-0.25474">
        <ele>2309.662109375</ele>
        <time>2014-03-10T11:56:51Z</time>
      </trkpt>
      <trkpt lat="42.8115" lon="-0.25506">
        <ele>2308.1770019531</ele>
        <time>2014-03-10T11:57:00Z</time>
      </trkpt>
      <trkpt lat="42.81147" lon="-0.25511">
        <ele>2306.7470703125</ele>
        <time>2014-03-10T11:57:02Z</time>
      </trkpt>
      <trkpt lat="42.81145" lon="-0.25516">
        <ele>2303.2329101562</ele>
        <time>2014-03-10T11:57:03Z</time>
      </trkpt>
      <trkpt lat="42.81144" lon="-0.25524">
        <ele>2299.5339355469</ele>
        <time>2014-03-10T11:57:04Z</time>
      </trkpt>
      <trkpt lat="42.81145" lon="-0.25532">
        <ele>2299.5339355469</ele>
        <time>2014-03-10T11:57:05Z</time>
      </trkpt>
      <trkpt lat="42.81145" lon="-0.25546">
        <ele>2298.0568847656</ele>
        <time>2014-03-10T11:57:07Z</time>
      </trkpt>
      <trkpt lat="42.81149" lon="-0.25585">
        <ele>2295.9108886719</ele>
        <time>2014-03-10T11:57:14Z</time>
      </trkpt>
      <trkpt lat="42.81152" lon="-0.25591">
        <ele>2294.7180175781</ele>
        <time>2014-03-10T11:57:15Z</time>
      </trkpt>
      <trkpt lat="42.81164" lon="-0.25629">
        <ele>2292.0009765625</ele>
        <time>2014-03-10T11:57:21Z</time>
      </trkpt>
      <trkpt lat="42.81165" lon="-0.25646">
        <ele>2288.2390136719</ele>
        <time>2014-03-10T11:57:26Z</time>
      </trkpt>
      <trkpt lat="42.81167" lon="-0.25659">
        <ele>2285.6650390625</ele>
        <time>2014-03-10T11:57:28Z</time>
      </trkpt>
      <trkpt lat="42.81171" lon="-0.25673">
        <ele>2282.9909667969</ele>
        <time>2014-03-10T11:57:30Z</time>
      </trkpt>
      <trkpt lat="42.81174" lon="-0.25685">
        <ele>2281.9340820312</ele>
        <time>2014-03-10T11:57:32Z</time>
      </trkpt>
      <trkpt lat="42.81185" lon="-0.25736">
        <ele>2277.6918945312</ele>
        <time>2014-03-10T11:57:40Z</time>
      </trkpt>
      <trkpt lat="42.81191" lon="-0.25747">
        <ele>2276.74609375</ele>
        <time>2014-03-10T11:57:42Z</time>
      </trkpt>
      <trkpt lat="42.81195" lon="-0.25754">
        <ele>2276.9289550781</ele>
        <time>2014-03-10T11:57:44Z</time>
      </trkpt>
      <trkpt lat="42.81189" lon="-0.25776">
        <ele>2272.0749511719</ele>
        <time>2014-03-10T11:57:48Z</time>
      </trkpt>
      <trkpt lat="42.81188" lon="-0.25784">
        <ele>2272.0749511719</ele>
        <time>2014-03-10T11:57:49Z</time>
      </trkpt>
      <trkpt lat="42.81196" lon="-0.25816">
        <ele>2271.4450683594</ele>
        <time>2014-03-10T11:57:56Z</time>
      </trkpt>
      <trkpt lat="42.812" lon="-0.25846">
        <ele>2268.2490234375</ele>
        <time>2014-03-10T11:58:02Z</time>
      </trkpt>
      <trkpt lat="42.81204" lon="-0.25875">
        <ele>2265.7009277344</ele>
        <time>2014-03-10T11:58:07Z</time>
      </trkpt>
      <trkpt lat="42.81218" lon="-0.25917">
        <ele>2261.7919921875</ele>
        <time>2014-03-10T11:58:18Z</time>
      </trkpt>
      <trkpt lat="42.8122" lon="-0.25921">
        <ele>2261.7980957031</ele>
        <time>2014-03-10T11:58:19Z</time>
      </trkpt>
      <trkpt lat="42.8123" lon="-0.25958">
        <ele>2259.5310058594</ele>
        <time>2014-03-10T11:58:29Z</time>
      </trkpt>
      <trkpt lat="42.81234" lon="-0.26003">
        <ele>2257.2490234375</ele>
        <time>2014-03-10T11:58:43Z</time>
      </trkpt>
      <trkpt lat="42.8124" lon="-0.26048">
        <ele>2255.501953125</ele>
        <time>2014-03-10T11:58:58Z</time>
      </trkpt>
      <trkpt lat="42.81246" lon="-0.26078">
        <ele>2254.4541015625</ele>
        <time>2014-03-10T11:59:11Z</time>
      </trkpt>
      <trkpt lat="42.81247" lon="-0.26079">
        <ele>2253.7739257812</ele>
        <time>2014-03-10T12:00:21Z</time>
      </trkpt>
      <trkpt lat="42.81246" lon="-0.26079">
        <ele>2253.5930175781</ele>
        <time>2014-03-10T12:00:22Z</time>
      </trkpt>
      <trkpt lat="42.8124" lon="-0.26115">
        <ele>2250.0859375</ele>
        <time>2014-03-10T12:00:31Z</time>
      </trkpt>
      <trkpt lat="42.81238" lon="-0.26126">
        <ele>2248.6350097656</ele>
        <time>2014-03-10T12:00:33Z</time>
      </trkpt>
      <trkpt lat="42.81234" lon="-0.26169">
        <ele>2246.49609375</ele>
        <time>2014-03-10T12:00:43Z</time>
      </trkpt>
      <trkpt lat="42.81236" lon="-0.26179">
        <ele>2245.2629394531</ele>
        <time>2014-03-10T12:00:45Z</time>
      </trkpt>
      <trkpt lat="42.81245" lon="-0.26206">
        <ele>2242.5969238281</ele>
        <time>2014-03-10T12:00:52Z</time>
      </trkpt>
      <trkpt lat="42.81254" lon="-0.26226">
        <ele>2240.9580078125</ele>
        <time>2014-03-10T12:00:59Z</time>
      </trkpt>
      <trkpt lat="42.81273" lon="-0.2625">
        <ele>2238.662109375</ele>
        <time>2014-03-10T12:01:08Z</time>
      </trkpt>
      <trkpt lat="42.81283" lon="-0.26273">
        <ele>2234.3999023438</ele>
        <time>2014-03-10T12:01:14Z</time>
      </trkpt>
      <trkpt lat="42.81285" lon="-0.26277">
        <ele>2234.4020996094</ele>
        <time>2014-03-10T12:01:15Z</time>
      </trkpt>
      <trkpt lat="42.81303" lon="-0.26312">
        <ele>2232.20703125</ele>
        <time>2014-03-10T12:01:26Z</time>
      </trkpt>
      <trkpt lat="42.81314" lon="-0.26349">
        <ele>2229.6879882812</ele>
        <time>2014-03-10T12:01:38Z</time>
      </trkpt>
      <trkpt lat="42.81314" lon="-0.26351">
        <ele>2230.287109375</ele>
        <time>2014-03-10T12:01:40Z</time>
      </trkpt>
      <trkpt lat="42.81316" lon="-0.26358">
        <ele>2230.9880371094</ele>
        <time>2014-03-10T12:01:50Z</time>
      </trkpt>
      <trkpt lat="42.81318" lon="-0.26366">
        <ele>2228.8200683594</ele>
        <time>2014-03-10T12:01:54Z</time>
      </trkpt>
      <trkpt lat="42.81323" lon="-0.264">
        <ele>2226.4741210938</ele>
        <time>2014-03-10T12:02:07Z</time>
      </trkpt>
      <trkpt lat="42.81322" lon="-0.26406">
        <ele>2226.5949707031</ele>
        <time>2014-03-10T12:02:10Z</time>
      </trkpt>
      <trkpt lat="42.81325" lon="-0.26427">
        <ele>2226.044921875</ele>
        <time>2014-03-10T12:02:18Z</time>
      </trkpt>
      <trkpt lat="42.81327" lon="-0.26435">
        <ele>2225.2890625</ele>
        <time>2014-03-10T12:02:21Z</time>
      </trkpt>
      <trkpt lat="42.81333" lon="-0.26473">
        <ele>2224.2229003906</ele>
        <time>2014-03-10T12:02:34Z</time>
      </trkpt>
      <trkpt lat="42.81337" lon="-0.26489">
        <ele>2224.912109375</ele>
        <time>2014-03-10T12:02:54Z</time>
      </trkpt>
      <trkpt lat="42.81334" lon="-0.26496">
        <ele>2225.6730957031</ele>
        <time>2014-03-10T12:03:20Z</time>
      </trkpt>
      <trkpt lat="42.81334" lon="-0.26496">
        <ele>2223.9750976562</ele>
        <time>2014-03-10T12:04:16Z</time>
      </trkpt>
      <trkpt lat="42.81335" lon="-0.26496">
        <ele>2222.4899902344</ele>
        <time>2014-03-10T12:05:07Z</time>
      </trkpt>
      <trkpt lat="42.81334" lon="-0.26493">
        <ele>2223.2299804688</ele>
        <time>2014-03-10T12:09:41Z</time>
      </trkpt>
      <trkpt lat="42.81323" lon="-0.26532">
        <ele>2219.6459960938</ele>
        <time>2014-03-10T12:09:52Z</time>
      </trkpt>
      <trkpt lat="42.81322" lon="-0.26538">
        <ele>2219.6398925781</ele>
        <time>2014-03-10T12:09:53Z</time>
      </trkpt>
      <trkpt lat="42.81319" lon="-0.26556">
        <ele>2217.8139648438</ele>
        <time>2014-03-10T12:09:56Z</time>
      </trkpt>
      <trkpt lat="42.81319" lon="-0.26592">
        <ele>2216.875</ele>
        <time>2014-03-10T12:10:07Z</time>
      </trkpt>
      <trkpt lat="42.81317" lon="-0.26615">
        <ele>2214.9919433594</ele>
        <time>2014-03-10T12:10:12Z</time>
      </trkpt>
      <trkpt lat="42.81315" lon="-0.26637">
        <ele>2212.5869140625</ele>
        <time>2014-03-10T12:10:16Z</time>
      </trkpt>
      <trkpt lat="42.81317" lon="-0.26664">
        <ele>2210.0300292969</ele>
        <time>2014-03-10T12:10:21Z</time>
      </trkpt>
      <trkpt lat="42.81322" lon="-0.26711">
        <ele>2207.1240234375</ele>
        <time>2014-03-10T12:10:35Z</time>
      </trkpt>
      <trkpt lat="42.81329" lon="-0.26749">
        <ele>2204.0249023438</ele>
        <time>2014-03-10T12:10:46Z</time>
      </trkpt>
      <trkpt lat="42.81332" lon="-0.26765">
        <ele>2202.8068847656</ele>
        <time>2014-03-10T12:10:49Z</time>
      </trkpt>
      <trkpt lat="42.81334" lon="-0.2679">
        <ele>2198.8688964844</ele>
        <time>2014-03-10T12:10:53Z</time>
      </trkpt>
      <trkpt lat="42.81333" lon="-0.26798">
        <ele>2198.8659667969</ele>
        <time>2014-03-10T12:10:54Z</time>
      </trkpt>
      <trkpt lat="42.81333" lon="-0.26814">
        <ele>2197.4440917969</ele>
        <time>2014-03-10T12:10:56Z</time>
      </trkpt>
      <trkpt lat="42.81332" lon="-0.2683">
        <ele>2195.0620117188</ele>
        <time>2014-03-10T12:10:58Z</time>
      </trkpt>
      <trkpt lat="42.8133" lon="-0.26845">
        <ele>2190.8530273438</ele>
        <time>2014-03-10T12:11:00Z</time>
      </trkpt>
      <trkpt lat="42.81328" lon="-0.26852">
        <ele>2190.8510742188</ele>
        <time>2014-03-10T12:11:01Z</time>
      </trkpt>
      <trkpt lat="42.81319" lon="-0.26884">
        <ele>2187.0080566406</ele>
        <time>2014-03-10T12:11:06Z</time>
      </trkpt>
      <trkpt lat="42.81317" lon="-0.2689">
        <ele>2187.0048828125</ele>
        <time>2014-03-10T12:11:07Z</time>
      </trkpt>
      <trkpt lat="42.81311" lon="-0.26907">
        <ele>2185.2790527344</ele>
        <time>2014-03-10T12:11:10Z</time>
      </trkpt>
      <trkpt lat="42.81301" lon="-0.26929">
        <ele>2182.8168945312</ele>
        <time>2014-03-10T12:11:14Z</time>
      </trkpt>
      <trkpt lat="42.81293" lon="-0.26947">
        <ele>2181.0830078125</ele>
        <time>2014-03-10T12:11:17Z</time>
      </trkpt>
      <trkpt lat="42.81282" lon="-0.26972">
        <ele>2178.9780273438</ele>
        <time>2014-03-10T12:11:22Z</time>
      </trkpt>
      <trkpt lat="42.81277" lon="-0.27002">
        <ele>2176.587890625</ele>
        <time>2014-03-10T12:11:28Z</time>
      </trkpt>
      <trkpt lat="42.81275" lon="-0.27018">
        <ele>2174.9838867188</ele>
        <time>2014-03-10T12:11:31Z</time>
      </trkpt>
      <trkpt lat="42.81275" lon="-0.27024">
        <ele>2174.2729492188</ele>
        <time>2014-03-10T12:11:32Z</time>
      </trkpt>
      <trkpt lat="42.8128" lon="-0.27067">
        <ele>2171.1489257812</ele>
        <time>2014-03-10T12:11:41Z</time>
      </trkpt>
      <trkpt lat="42.81287" lon="-0.27084">
        <ele>2169.6389160156</ele>
        <time>2014-03-10T12:11:45Z</time>
      </trkpt>
      <trkpt lat="42.81286" lon="-0.27125">
        <ele>2165.9951171875</ele>
        <time>2014-03-10T12:11:53Z</time>
      </trkpt>
      <trkpt lat="42.81286" lon="-0.27131">
        <ele>2165.9929199219</ele>
        <time>2014-03-10T12:11:54Z</time>
      </trkpt>
      <trkpt lat="42.81285" lon="-0.27145">
        <ele>2164.4870605469</ele>
        <time>2014-03-10T12:11:56Z</time>
      </trkpt>
      <trkpt lat="42.81286" lon="-0.2718">
        <ele>2162.4470214844</ele>
        <time>2014-03-10T12:12:05Z</time>
      </trkpt>
      <trkpt lat="42.81287" lon="-0.2719">
        <ele>2161.2958984375</ele>
        <time>2014-03-10T12:12:08Z</time>
      </trkpt>
      <trkpt lat="42.8129" lon="-0.2722">
        <ele>2159.4020996094</ele>
        <time>2014-03-10T12:12:15Z</time>
      </trkpt>
      <trkpt lat="42.81289" lon="-0.27252">
        <ele>2156.7150878906</ele>
        <time>2014-03-10T12:12:22Z</time>
      </trkpt>
      <trkpt lat="42.8129" lon="-0.27264">
        <ele>2155.6520996094</ele>
        <time>2014-03-10T12:12:24Z</time>
      </trkpt>
      <trkpt lat="42.81296" lon="-0.2729">
        <ele>2153.1479492188</ele>
        <time>2014-03-10T12:12:28Z</time>
      </trkpt>
      <trkpt lat="42.81299" lon="-0.27355">
        <ele>2150.8530273438</ele>
        <time>2014-03-10T12:12:42Z</time>
      </trkpt>
      <trkpt lat="42.81295" lon="-0.27397">
        <ele>2149.1259765625</ele>
        <time>2014-03-10T12:12:54Z</time>
      </trkpt>
      <trkpt lat="42.81291" lon="-0.27406">
        <ele>2148.4331054688</ele>
        <time>2014-03-10T12:12:57Z</time>
      </trkpt>
      <trkpt lat="42.81292" lon="-0.27436">
        <ele>2149.3000488281</ele>
        <time>2014-03-10T12:13:15Z</time>
      </trkpt>
      <trkpt lat="42.8129" lon="-0.27481">
        <ele>2145.833984375</ele>
        <time>2014-03-10T12:13:25Z</time>
      </trkpt>
      <trkpt lat="42.81293" lon="-0.2753">
        <ele>2143.583984375</ele>
        <time>2014-03-10T12:13:36Z</time>
      </trkpt>
      <trkpt lat="42.81292" lon="-0.276">
        <ele>2139.6999511719</ele>
        <time>2014-03-10T12:13:51Z</time>
      </trkpt>
      <trkpt lat="42.81291" lon="-0.27635">
        <ele>2139.1479492188</ele>
        <time>2014-03-10T12:13:58Z</time>
      </trkpt>
      <trkpt lat="42.8129" lon="-0.27661">
        <ele>2138.3029785156</ele>
        <time>2014-03-10T12:14:05Z</time>
      </trkpt>
      <trkpt lat="42.81289" lon="-0.27668">
        <ele>2138.3588867188</ele>
        <time>2014-03-10T12:14:08Z</time>
      </trkpt>
      <trkpt lat="42.81285" lon="-0.277">
        <ele>2137.4499511719</ele>
        <time>2014-03-10T12:14:21Z</time>
      </trkpt>
      <trkpt lat="42.81282" lon="-0.27709">
        <ele>2136.8859863281</ele>
        <time>2014-03-10T12:14:24Z</time>
      </trkpt>
      <trkpt lat="42.8128" lon="-0.27759">
        <ele>2137.0190429688</ele>
        <time>2014-03-10T12:14:41Z</time>
      </trkpt>
      <trkpt lat="42.81278" lon="-0.27787">
        <ele>2136.6420898438</ele>
        <time>2014-03-10T12:14:53Z</time>
      </trkpt>
      <trkpt lat="42.81281" lon="-0.27825">
        <ele>2135.1479492188</ele>
        <time>2014-03-10T12:15:03Z</time>
      </trkpt>
      <trkpt lat="42.81282" lon="-0.27833">
        <ele>2135.083984375</ele>
        <time>2014-03-10T12:15:05Z</time>
      </trkpt>
      <trkpt lat="42.8128" lon="-0.2785">
        <ele>2134.7290039062</ele>
        <time>2014-03-10T12:15:11Z</time>
      </trkpt>
      <trkpt lat="42.81277" lon="-0.27887">
        <ele>2134.4020996094</ele>
        <time>2014-03-10T12:15:23Z</time>
      </trkpt>
      <trkpt lat="42.81269" lon="-0.27915">
        <ele>2134.1040039062</ele>
        <time>2014-03-10T12:15:35Z</time>
      </trkpt>
      <trkpt lat="42.81265" lon="-0.27928">
        <ele>2132.837890625</ele>
        <time>2014-03-10T12:15:38Z</time>
      </trkpt>
      <trkpt lat="42.8126" lon="-0.27944">
        <ele>2131.2919921875</ele>
        <time>2014-03-10T12:15:41Z</time>
      </trkpt>
      <trkpt lat="42.8125" lon="-0.27977">
        <ele>2130.8610839844</ele>
        <time>2014-03-10T12:15:51Z</time>
      </trkpt>
      <trkpt lat="42.81249" lon="-0.27983">
        <ele>2131.2060546875</ele>
        <time>2014-03-10T12:15:53Z</time>
      </trkpt>
      <trkpt lat="42.81251" lon="-0.2799">
        <ele>2130.9450683594</ele>
        <time>2014-03-10T12:16:11Z</time>
      </trkpt>
      <trkpt lat="42.81251" lon="-0.2799">
        <ele>2130.8068847656</ele>
        <time>2014-03-10T12:17:29Z</time>
      </trkpt>
      <trkpt lat="42.81251" lon="-0.2799">
        <ele>2130.3979492188</ele>
        <time>2014-03-10T12:18:21Z</time>
      </trkpt>
      <trkpt lat="42.81252" lon="-0.27992">
        <ele>2130.4699707031</ele>
        <time>2014-03-10T12:19:41Z</time>
      </trkpt>
      <trkpt lat="42.81251" lon="-0.28">
        <ele>2130.2580566406</ele>
        <time>2014-03-10T12:19:45Z</time>
      </trkpt>
      <trkpt lat="42.81247" lon="-0.28051">
        <ele>2126.6870117188</ele>
        <time>2014-03-10T12:19:56Z</time>
      </trkpt>
      <trkpt lat="42.81242" lon="-0.2808">
        <ele>2127.0639648438</ele>
        <time>2014-03-10T12:20:08Z</time>
      </trkpt>
      <trkpt lat="42.8124" lon="-0.28089">
        <ele>2126.5258789062</ele>
        <time>2014-03-10T12:20:14Z</time>
      </trkpt>
      <trkpt lat="42.81245" lon="-0.28117">
        <ele>2126.4089355469</ele>
        <time>2014-03-10T12:20:27Z</time>
      </trkpt>
      <trkpt lat="42.81239" lon="-0.28145">
        <ele>2123.9479980469</ele>
        <time>2014-03-10T12:20:35Z</time>
      </trkpt>
      <trkpt lat="42.81221" lon="-0.28215">
        <ele>2120.9030761719</ele>
        <time>2014-03-10T12:20:50Z</time>
      </trkpt>
      <trkpt lat="42.81212" lon="-0.28251">
        <ele>2120.1069335938</ele>
        <time>2014-03-10T12:21:01Z</time>
      </trkpt>
      <trkpt lat="42.81201" lon="-0.283">
        <ele>2118.6201171875</ele>
        <time>2014-03-10T12:21:17Z</time>
      </trkpt>
      <trkpt lat="42.81201" lon="-0.28317">
        <ele>2118.2919921875</ele>
        <time>2014-03-10T12:21:22Z</time>
      </trkpt>
      <trkpt lat="42.81201" lon="-0.28363">
        <ele>2117.7419433594</ele>
        <time>2014-03-10T12:21:37Z</time>
      </trkpt>
      <trkpt lat="42.81187" lon="-0.28427">
        <ele>2116.0500488281</ele>
        <time>2014-03-10T12:21:56Z</time>
      </trkpt>
      <trkpt lat="42.81181" lon="-0.28463">
        <ele>2114.9790039062</ele>
        <time>2014-03-10T12:22:09Z</time>
      </trkpt>
      <trkpt lat="42.81182" lon="-0.285">
        <ele>2113.6550292969</ele>
        <time>2014-03-10T12:22:22Z</time>
      </trkpt>
      <trkpt lat="42.8117" lon="-0.28538">
        <ele>2111.791015625</ele>
        <time>2014-03-10T12:22:33Z</time>
      </trkpt>
      <trkpt lat="42.81164" lon="-0.28561">
        <ele>2112.0070800781</ele>
        <time>2014-03-10T12:22:41Z</time>
      </trkpt>
      <trkpt lat="42.81163" lon="-0.28572">
        <ele>2112.1708984375</ele>
        <time>2014-03-10T12:22:44Z</time>
      </trkpt>
      <trkpt lat="42.8115" lon="-0.28617">
        <ele>2110.2351074219</ele>
        <time>2014-03-10T12:23:00Z</time>
      </trkpt>
      <trkpt lat="42.81146" lon="-0.28644">
        <ele>2109.8779296875</ele>
        <time>2014-03-10T12:23:11Z</time>
      </trkpt>
      <trkpt lat="42.81137" lon="-0.28678">
        <ele>2109.7219238281</ele>
        <time>2014-03-10T12:23:24Z</time>
      </trkpt>
      <trkpt lat="42.81133" lon="-0.28693">
        <ele>2109.4809570312</ele>
        <time>2014-03-10T12:23:31Z</time>
      </trkpt>
      <trkpt lat="42.81131" lon="-0.287">
        <ele>2109.6770019531</ele>
        <time>2014-03-10T12:23:35Z</time>
      </trkpt>
      <trkpt lat="42.81125" lon="-0.28748">
        <ele>2109.458984375</ele>
        <time>2014-03-10T12:23:55Z</time>
      </trkpt>
      <trkpt lat="42.81126" lon="-0.28751">
        <ele>2109.6298828125</ele>
        <time>2014-03-10T12:24:10Z</time>
      </trkpt>
      <trkpt lat="42.81126" lon="-0.28751">
        <ele>2107.4140625</ele>
        <time>2014-03-10T12:24:51Z</time>
      </trkpt>
      <trkpt lat="42.81126" lon="-0.28751">
        <ele>2108.1831054688</ele>
        <time>2014-03-10T12:26:15Z</time>
      </trkpt>
      <trkpt lat="42.81128" lon="-0.28749">
        <ele>2108.2399902344</ele>
        <time>2014-03-10T12:30:44Z</time>
      </trkpt>
      <trkpt lat="42.81127" lon="-0.28748">
        <ele>2108.0029296875</ele>
        <time>2014-03-10T12:31:46Z</time>
      </trkpt>
      <trkpt lat="42.81129" lon="-0.28749">
        <ele>2107.125</ele>
        <time>2014-03-10T12:34:23Z</time>
      </trkpt>
      <trkpt lat="42.81126" lon="-0.28755">
        <ele>2107.2080078125</ele>
        <time>2014-03-10T12:34:42Z</time>
      </trkpt>
      <trkpt lat="42.81124" lon="-0.28762">
        <ele>2107.9609375</ele>
        <time>2014-03-10T12:35:13Z</time>
      </trkpt>
      <trkpt lat="42.81133" lon="-0.28786">
        <ele>2110.6589355469</ele>
        <time>2014-03-10T12:35:36Z</time>
      </trkpt>
      <trkpt lat="42.81143" lon="-0.28797">
        <ele>2113.5100097656</ele>
        <time>2014-03-10T12:35:54Z</time>
      </trkpt>
      <trkpt lat="42.81153" lon="-0.28808">
        <ele>2115.5749511719</ele>
        <time>2014-03-10T12:36:12Z</time>
      </trkpt>
      <trkpt lat="42.8116" lon="-0.28816">
        <ele>2116.8168945312</ele>
        <time>2014-03-10T12:36:22Z</time>
      </trkpt>
      <trkpt lat="42.81171" lon="-0.28829">
        <ele>2119.6579589844</ele>
        <time>2014-03-10T12:36:41Z</time>
      </trkpt>
      <trkpt lat="42.81176" lon="-0.28827">
        <ele>2121.1918945312</ele>
        <time>2014-03-10T12:37:01Z</time>
      </trkpt>
      <trkpt lat="42.81174" lon="-0.28814">
        <ele>2124.41796875</ele>
        <time>2014-03-10T12:37:16Z</time>
      </trkpt>
      <trkpt lat="42.81174" lon="-0.28803">
        <ele>2127.5</ele>
        <time>2014-03-10T12:37:39Z</time>
      </trkpt>
      <trkpt lat="42.81171" lon="-0.28792">
        <ele>2131.0710449219</ele>
        <time>2014-03-10T12:37:55Z</time>
      </trkpt>
      <trkpt lat="42.81172" lon="-0.28791">
        <ele>2131.2600097656</ele>
        <time>2014-03-10T12:37:56Z</time>
      </trkpt>
      <trkpt lat="42.8118" lon="-0.28785">
        <ele>2133.0930175781</ele>
        <time>2014-03-10T12:38:12Z</time>
      </trkpt>
      <trkpt lat="42.81194" lon="-0.28778">
        <ele>2134.3859863281</ele>
        <time>2014-03-10T12:38:35Z</time>
      </trkpt>
      <trkpt lat="42.81201" lon="-0.28777">
        <ele>2135.9250488281</ele>
        <time>2014-03-10T12:38:56Z</time>
      </trkpt>
      <trkpt lat="42.81211" lon="-0.28776">
        <ele>2137.7360839844</ele>
        <time>2014-03-10T12:39:23Z</time>
      </trkpt>
      <trkpt lat="42.81212" lon="-0.28776">
        <ele>2137.2329101562</ele>
        <time>2014-03-10T12:39:24Z</time>
      </trkpt>
      <trkpt lat="42.81228" lon="-0.28752">
        <ele>2135.7241210938</ele>
        <time>2014-03-10T12:39:42Z</time>
      </trkpt>
      <trkpt lat="42.81234" lon="-0.28742">
        <ele>2134.4760742188</ele>
        <time>2014-03-10T12:39:50Z</time>
      </trkpt>
      <trkpt lat="42.81246" lon="-0.28725">
        <ele>2135.8920898438</ele>
        <time>2014-03-10T12:40:07Z</time>
      </trkpt>
      <trkpt lat="42.81258" lon="-0.28708">
        <ele>2136.1569824219</ele>
        <time>2014-03-10T12:40:31Z</time>
      </trkpt>
      <trkpt lat="42.81269" lon="-0.2869">
        <ele>2133.126953125</ele>
        <time>2014-03-10T12:40:43Z</time>
      </trkpt>
      <trkpt lat="42.81281" lon="-0.28674">
        <ele>2132.3239746094</ele>
        <time>2014-03-10T12:40:56Z</time>
      </trkpt>
      <trkpt lat="42.81291" lon="-0.28656">
        <ele>2131.919921875</ele>
        <time>2014-03-10T12:41:12Z</time>
      </trkpt>
      <trkpt lat="42.81301" lon="-0.28648">
        <ele>2130.7119140625</ele>
        <time>2014-03-10T12:41:22Z</time>
      </trkpt>
      <trkpt lat="42.8131" lon="-0.28651">
        <ele>2129.3439941406</ele>
        <time>2014-03-10T12:41:36Z</time>
      </trkpt>
      <trkpt lat="42.81305" lon="-0.28635">
        <ele>2131.7060546875</ele>
        <time>2014-03-10T12:41:51Z</time>
      </trkpt>
      <trkpt lat="42.81303" lon="-0.28622">
        <ele>2134.0759277344</ele>
        <time>2014-03-10T12:42:08Z</time>
      </trkpt>
      <trkpt lat="42.81303" lon="-0.28618">
        <ele>2135.4741210938</ele>
        <time>2014-03-10T12:42:24Z</time>
      </trkpt>
      <trkpt lat="42.81302" lon="-0.28606">
        <ele>2136.4440917969</ele>
        <time>2014-03-10T12:42:32Z</time>
      </trkpt>
      <trkpt lat="42.81306" lon="-0.28605">
        <ele>2138.8579101562</ele>
        <time>2014-03-10T12:42:43Z</time>
      </trkpt>
      <trkpt lat="42.8132" lon="-0.28608">
        <ele>2139.6110839844</ele>
        <time>2014-03-10T12:43:00Z</time>
      </trkpt>
      <trkpt lat="42.81323" lon="-0.28607">
        <ele>2139.2810058594</ele>
        <time>2014-03-10T12:43:06Z</time>
      </trkpt>
      <trkpt lat="42.81327" lon="-0.28602">
        <ele>2136.9208984375</ele>
        <time>2014-03-10T12:43:11Z</time>
      </trkpt>
      <trkpt lat="42.81337" lon="-0.28579">
        <ele>2137.8940429688</ele>
        <time>2014-03-10T12:43:30Z</time>
      </trkpt>
      <trkpt lat="42.81346" lon="-0.2857">
        <ele>2134.3259277344</ele>
        <time>2014-03-10T12:43:36Z</time>
      </trkpt>
      <trkpt lat="42.8135" lon="-0.28568">
        <ele>2134.3220214844</ele>
        <time>2014-03-10T12:43:37Z</time>
      </trkpt>
      <trkpt lat="42.81359" lon="-0.28567">
        <ele>2133.8969726562</ele>
        <time>2014-03-10T12:43:45Z</time>
      </trkpt>
      <trkpt lat="42.81374" lon="-0.28567">
        <ele>2133.2639160156</ele>
        <time>2014-03-10T12:44:01Z</time>
      </trkpt>
      <trkpt lat="42.81384" lon="-0.28562">
        <ele>2132.4399414062</ele>
        <time>2014-03-10T12:44:12Z</time>
      </trkpt>
      <trkpt lat="42.81397" lon="-0.28545">
        <ele>2131.4899902344</ele>
        <time>2014-03-10T12:44:28Z</time>
      </trkpt>
      <trkpt lat="42.81405" lon="-0.28521">
        <ele>2131.5681152344</ele>
        <time>2014-03-10T12:44:51Z</time>
      </trkpt>
      <trkpt lat="42.81405" lon="-0.28496">
        <ele>2132.2958984375</ele>
        <time>2014-03-10T12:45:10Z</time>
      </trkpt>
      <trkpt lat="42.81406" lon="-0.28479">
        <ele>2131.9938964844</ele>
        <time>2014-03-10T12:45:27Z</time>
      </trkpt>
      <trkpt lat="42.81404" lon="-0.28474">
        <ele>2131.5810546875</ele>
        <time>2014-03-10T12:45:47Z</time>
      </trkpt>
      <trkpt lat="42.81404" lon="-0.28461">
        <ele>2131.3940429688</ele>
        <time>2014-03-10T12:46:16Z</time>
      </trkpt>
      <trkpt lat="42.81408" lon="-0.28439">
        <ele>2131.9970703125</ele>
        <time>2014-03-10T12:46:37Z</time>
      </trkpt>
      <trkpt lat="42.81409" lon="-0.28426">
        <ele>2133.4389648438</ele>
        <time>2014-03-10T12:46:58Z</time>
      </trkpt>
      <trkpt lat="42.81409" lon="-0.28423">
        <ele>2133.0700683594</ele>
        <time>2014-03-10T12:47:28Z</time>
      </trkpt>
      <trkpt lat="42.81408" lon="-0.28398">
        <ele>2131.7661132812</ele>
        <time>2014-03-10T12:47:53Z</time>
      </trkpt>
      <trkpt lat="42.81409" lon="-0.28387">
        <ele>2130.5180664062</ele>
        <time>2014-03-10T12:48:03Z</time>
      </trkpt>
      <trkpt lat="42.81415" lon="-0.28373">
        <ele>2126.4641113281</ele>
        <time>2014-03-10T12:48:06Z</time>
      </trkpt>
      <trkpt lat="42.81417" lon="-0.28369">
        <ele>2125.5939941406</ele>
        <time>2014-03-10T12:48:07Z</time>
      </trkpt>
      <trkpt lat="42.81423" lon="-0.28361">
        <ele>2124.0930175781</ele>
        <time>2014-03-10T12:48:09Z</time>
      </trkpt>
      <trkpt lat="42.81435" lon="-0.28356">
        <ele>2120.83203125</ele>
        <time>2014-03-10T12:48:12Z</time>
      </trkpt>
      <trkpt lat="42.81437" lon="-0.28355">
        <ele>2120.8249511719</ele>
        <time>2014-03-10T12:48:13Z</time>
      </trkpt>
      <trkpt lat="42.81445" lon="-0.28361">
        <ele>2120.9741210938</ele>
        <time>2014-03-10T12:48:21Z</time>
      </trkpt>
      <trkpt lat="42.81452" lon="-0.28382">
        <ele>2119.9040527344</ele>
        <time>2014-03-10T12:48:36Z</time>
      </trkpt>
      <trkpt lat="42.81461" lon="-0.284">
        <ele>2119.9479980469</ele>
        <time>2014-03-10T12:48:51Z</time>
      </trkpt>
      <trkpt lat="42.8147" lon="-0.28424">
        <ele>2120.4060058594</ele>
        <time>2014-03-10T12:49:13Z</time>
      </trkpt>
      <trkpt lat="42.81474" lon="-0.28432">
        <ele>2121.166015625</ele>
        <time>2014-03-10T12:49:20Z</time>
      </trkpt>
      <trkpt lat="42.81483" lon="-0.28452">
        <ele>2120.1630859375</ele>
        <time>2014-03-10T12:49:36Z</time>
      </trkpt>
      <trkpt lat="42.81491" lon="-0.28471">
        <ele>2120.583984375</ele>
        <time>2014-03-10T12:49:56Z</time>
      </trkpt>
      <trkpt lat="42.81491" lon="-0.28474">
        <ele>2120.8569335938</ele>
        <time>2014-03-10T12:50:11Z</time>
      </trkpt>
      <trkpt lat="42.81497" lon="-0.28482">
        <ele>2121.2260742188</ele>
        <time>2014-03-10T12:50:29Z</time>
      </trkpt>
      <trkpt lat="42.81503" lon="-0.28494">
        <ele>2123.6818847656</ele>
        <time>2014-03-10T12:50:47Z</time>
      </trkpt>
      <trkpt lat="42.81509" lon="-0.28488">
        <ele>2126.5319824219</ele>
        <time>2014-03-10T12:51:08Z</time>
      </trkpt>
      <trkpt lat="42.8151" lon="-0.28477">
        <ele>2128.416015625</ele>
        <time>2014-03-10T12:51:24Z</time>
      </trkpt>
      <trkpt lat="42.81514" lon="-0.28487">
        <ele>2130.5290527344</ele>
        <time>2014-03-10T12:51:37Z</time>
      </trkpt>
      <trkpt lat="42.81513" lon="-0.28501">
        <ele>2132.6420898438</ele>
        <time>2014-03-10T12:51:51Z</time>
      </trkpt>
      <trkpt lat="42.81511" lon="-0.28513">
        <ele>2134.9880371094</ele>
        <time>2014-03-10T12:52:08Z</time>
      </trkpt>
      <trkpt lat="42.81517" lon="-0.28509">
        <ele>2133.5009765625</ele>
        <time>2014-03-10T12:52:31Z</time>
      </trkpt>
      <trkpt lat="42.81524" lon="-0.28492">
        <ele>2135.1149902344</ele>
        <time>2014-03-10T12:52:49Z</time>
      </trkpt>
      <trkpt lat="42.8153" lon="-0.28478">
        <ele>2137.412109375</ele>
        <time>2014-03-10T12:53:14Z</time>
      </trkpt>
      <trkpt lat="42.81527" lon="-0.28457">
        <ele>2139.6650390625</ele>
        <time>2014-03-10T12:53:37Z</time>
      </trkpt>
      <trkpt lat="42.81527" lon="-0.28455">
        <ele>2140.9250488281</ele>
        <time>2014-03-10T12:53:40Z</time>
      </trkpt>
      <trkpt lat="42.81524" lon="-0.28446">
        <ele>2142.6440429688</ele>
        <time>2014-03-10T12:54:01Z</time>
      </trkpt>
      <trkpt lat="42.81531" lon="-0.2845">
        <ele>2144.0258789062</ele>
        <time>2014-03-10T12:54:17Z</time>
      </trkpt>
      <trkpt lat="42.81528" lon="-0.2844">
        <ele>2146.3610839844</ele>
        <time>2014-03-10T12:54:33Z</time>
      </trkpt>
      <trkpt lat="42.81533" lon="-0.28427">
        <ele>2148.5778808594</ele>
        <time>2014-03-10T12:54:51Z</time>
      </trkpt>
      <trkpt lat="42.81539" lon="-0.28429">
        <ele>2150.7470703125</ele>
        <time>2014-03-10T12:55:04Z</time>
      </trkpt>
      <trkpt lat="42.81546" lon="-0.28439">
        <ele>2154.0339355469</ele>
        <time>2014-03-10T12:55:22Z</time>
      </trkpt>
      <trkpt lat="42.8155" lon="-0.28459">
        <ele>2156.9240722656</ele>
        <time>2014-03-10T12:55:49Z</time>
      </trkpt>
      <trkpt lat="42.81551" lon="-0.28473">
        <ele>2158.9020996094</ele>
        <time>2014-03-10T12:56:08Z</time>
      </trkpt>
      <trkpt lat="42.81552" lon="-0.28483">
        <ele>2160.830078125</ele>
        <time>2014-03-10T12:56:26Z</time>
      </trkpt>
      <trkpt lat="42.81552" lon="-0.28495">
        <ele>2163.8989257812</ele>
        <time>2014-03-10T12:56:45Z</time>
      </trkpt>
      <trkpt lat="42.81555" lon="-0.28504">
        <ele>2165.9938964844</ele>
        <time>2014-03-10T12:57:00Z</time>
      </trkpt>
      <trkpt lat="42.8156" lon="-0.28509">
        <ele>2166.2819824219</ele>
        <time>2014-03-10T12:57:09Z</time>
      </trkpt>
      <trkpt lat="42.81561" lon="-0.28513">
        <ele>2166.3239746094</ele>
        <time>2014-03-10T12:57:12Z</time>
      </trkpt>
      <trkpt lat="42.81567" lon="-0.2852">
        <ele>2166.501953125</ele>
        <time>2014-03-10T12:57:18Z</time>
      </trkpt>
      <trkpt lat="42.81571" lon="-0.28531">
        <ele>2165.7680664062</ele>
        <time>2014-03-10T12:57:29Z</time>
      </trkpt>
      <trkpt lat="42.81576" lon="-0.28539">
        <ele>2165.7958984375</ele>
        <time>2014-03-10T12:57:41Z</time>
      </trkpt>
      <trkpt lat="42.81582" lon="-0.28551">
        <ele>2162.9770507812</ele>
        <time>2014-03-10T12:57:48Z</time>
      </trkpt>
      <trkpt lat="42.81586" lon="-0.28563">
        <ele>2160.462890625</ele>
        <time>2014-03-10T12:57:51Z</time>
      </trkpt>
      <trkpt lat="42.8159" lon="-0.28571">
        <ele>2158.7739257812</ele>
        <time>2014-03-10T12:57:53Z</time>
      </trkpt>
      <trkpt lat="42.81596" lon="-0.28585">
        <ele>2155.712890625</ele>
        <time>2014-03-10T12:57:57Z</time>
      </trkpt>
      <trkpt lat="42.81598" lon="-0.28588">
        <ele>2155.7099609375</ele>
        <time>2014-03-10T12:57:58Z</time>
      </trkpt>
      <trkpt lat="42.81601" lon="-0.28599">
        <ele>2154.455078125</ele>
        <time>2014-03-10T12:58:07Z</time>
      </trkpt>
      <trkpt lat="42.81602" lon="-0.28609">
        <ele>2153.5639648438</ele>
        <time>2014-03-10T12:58:17Z</time>
      </trkpt>
      <trkpt lat="42.81603" lon="-0.2862">
        <ele>2151.5329589844</ele>
        <time>2014-03-10T12:58:21Z</time>
      </trkpt>
      <trkpt lat="42.81606" lon="-0.28625">
        <ele>2149.9230957031</ele>
        <time>2014-03-10T12:58:23Z</time>
      </trkpt>
      <trkpt lat="42.81607" lon="-0.28626">
        <ele>2148.3349609375</ele>
        <time>2014-03-10T12:58:38Z</time>
      </trkpt>
      <trkpt lat="42.81615" lon="-0.28632">
        <ele>2145.1909179688</ele>
        <time>2014-03-10T12:58:41Z</time>
      </trkpt>
      <trkpt lat="42.81617" lon="-0.28635">
        <ele>2145.1889648438</ele>
        <time>2014-03-10T12:58:42Z</time>
      </trkpt>
      <trkpt lat="42.81622" lon="-0.28647">
        <ele>2145.1569824219</ele>
        <time>2014-03-10T12:58:52Z</time>
      </trkpt>
      <trkpt lat="42.81628" lon="-0.28661">
        <ele>2146.1040039062</ele>
        <time>2014-03-10T12:59:07Z</time>
      </trkpt>
      <trkpt lat="42.81633" lon="-0.28674">
        <ele>2147.3359375</ele>
        <time>2014-03-10T12:59:22Z</time>
      </trkpt>
      <trkpt lat="42.81636" lon="-0.28686">
        <ele>2148.58203125</ele>
        <time>2014-03-10T12:59:38Z</time>
      </trkpt>
      <trkpt lat="42.81641" lon="-0.2869">
        <ele>2148.6459960938</ele>
        <time>2014-03-10T13:00:04Z</time>
      </trkpt>
      <trkpt lat="42.81646" lon="-0.28696">
        <ele>2149.8029785156</ele>
        <time>2014-03-10T13:00:19Z</time>
      </trkpt>
      <trkpt lat="42.81653" lon="-0.28704">
        <ele>2150.2189941406</ele>
        <time>2014-03-10T13:00:31Z</time>
      </trkpt>
      <trkpt lat="42.81657" lon="-0.28705">
        <ele>2150.7800292969</ele>
        <time>2014-03-10T13:00:38Z</time>
      </trkpt>
      <trkpt lat="42.81675" lon="-0.28702">
        <ele>2149.2590332031</ele>
        <time>2014-03-10T13:00:48Z</time>
      </trkpt>
      <trkpt lat="42.81677" lon="-0.28708">
        <ele>2149.7150878906</ele>
        <time>2014-03-10T13:01:01Z</time>
      </trkpt>
      <trkpt lat="42.81678" lon="-0.28708">
        <ele>2150.3391113281</ele>
        <time>2014-03-10T13:01:34Z</time>
      </trkpt>
      <trkpt lat="42.81679" lon="-0.2871">
        <ele>2150.5</ele>
        <time>2014-03-10T13:01:53Z</time>
      </trkpt>
      <trkpt lat="42.81681" lon="-0.28722">
        <ele>2147.3530273438</ele>
        <time>2014-03-10T13:01:58Z</time>
      </trkpt>
      <trkpt lat="42.81681" lon="-0.28723">
        <ele>2147.3510742188</ele>
        <time>2014-03-10T13:01:59Z</time>
      </trkpt>
      <trkpt lat="42.81684" lon="-0.28741">
        <ele>2146.5600585938</ele>
        <time>2014-03-10T13:02:14Z</time>
      </trkpt>
      <trkpt lat="42.81683" lon="-0.28765">
        <ele>2145.2990722656</ele>
        <time>2014-03-10T13:02:36Z</time>
      </trkpt>
      <trkpt lat="42.81682" lon="-0.28771">
        <ele>2145.0600585938</ele>
        <time>2014-03-10T13:03:05Z</time>
      </trkpt>
      <trkpt lat="42.81684" lon="-0.28777">
        <ele>2145.3859863281</ele>
        <time>2014-03-10T13:03:43Z</time>
      </trkpt>
      <trkpt lat="42.81686" lon="-0.2878">
        <ele>2145.5639648438</ele>
        <time>2014-03-10T13:03:59Z</time>
      </trkpt>
    </trkseg>
  </trk>
</gpx>